SWR176 LSZH-WSSS
Flight info
| Callsign | SWR176 |
|---|---|
| Flight time | N/A |
| Altitude | 31000 |
| Route | DEGES Z2 UMVEG DCT DIMLO DCT TEGRI DCT VEVIN DCT DINRO DCT UDROS DCT ABSAX DCT KARDE/N0485F330 DCT REBLO M11 RODAR A909 ABDAN A846 RANAH L750 ZB G202 HILAL/N0487F350 G202 RK P628 IBANI L510 AGEGA/N0484F370 L510 GIVAL P628 VPL Y503 RINBA Y507 MAKNA Y511 TOPOR A464 ARAMA DCT TEBUN TEBUN1A |
| Aircraft | B77W/H-SDE1E2E3FGHIJ2J3J4J5M1RWXY/LB1D1 |
Departure
| Time | 2026-04-26 21:16 |
|---|---|
| Airport | Zürich Airport (LSZH) |
Arrival
| Time | N/A |
|---|---|
| Airport | Singapore Changi Airport (WSSS) |
| Time | Latitude | Longitude | Altitude | Speed | Heading |
|---|---|---|---|---|---|
| 2026-04-26 20:04 | 47.46058 | 8.55238 | 1391 ft | 0 kts | 6° |
| 2026-04-26 21:05 | 47.46057 | 8.55238 | 1389 ft | 1 kts | 6° |
| 2026-04-26 21:06 | 47.46043 | 8.55236 | 1389 ft | 2 kts | 6° |
| 2026-04-26 21:06 | 47.46028 | 8.55234 | 1389 ft | 2 kts | 6° |
| 2026-04-26 21:06 | 47.46013 | 8.55231 | 1389 ft | 2 kts | 7° |
| 2026-04-26 21:06 | 47.45999 | 8.55225 | 1389 ft | 2 kts | 39° |
| 2026-04-26 21:07 | 47.45989 | 8.55208 | 1389 ft | 2 kts | 66° |
| 2026-04-26 21:07 | 47.45986 | 8.55187 | 1389 ft | 1 kts | 92° |
| 2026-04-26 21:07 | 47.45986 | 8.55178 | 1389 ft | 0 kts | 97° |
| 2026-04-26 21:11 | 47.45985 | 8.55189 | 1389 ft | 3 kts | 97° |
| 2026-04-26 21:11 | 47.45981 | 8.55259 | 1389 ft | 9 kts | 95° |
| 2026-04-26 21:12 | 47.45973 | 8.55375 | 1389 ft | 10 kts | 95° |
| 2026-04-26 21:12 | 47.45966 | 8.55476 | 1389 ft | 8 kts | 96° |
| 2026-04-26 21:12 | 47.45959 | 8.55570 | 1389 ft | 9 kts | 97° |
| 2026-04-26 21:12 | 47.45950 | 8.55675 | 1389 ft | 10 kts | 96° |
| 2026-04-26 21:13 | 47.45941 | 8.55791 | 1389 ft | 11 kts | 96° |
| 2026-04-26 21:13 | 47.45934 | 8.55915 | 1389 ft | 12 kts | 95° |
| 2026-04-26 21:13 | 47.45925 | 8.56048 | 1389 ft | 13 kts | 96° |
| 2026-04-26 21:13 | 47.45914 | 8.56186 | 1389 ft | 13 kts | 97° |
| 2026-04-26 21:14 | 47.45932 | 8.56294 | 1389 ft | 8 kts | 29° |
| 2026-04-26 21:14 | 47.45985 | 8.56315 | 1389 ft | 7 kts | 9° |
| 2026-04-26 21:14 | 47.46034 | 8.56325 | 1389 ft | 6 kts | 8° |
| 2026-04-26 21:14 | 47.46081 | 8.56356 | 1390 ft | 8 kts | 39° |
| 2026-04-26 21:15 | 47.46126 | 8.56409 | 1391 ft | 7 kts | 4° |
| 2026-04-26 21:15 | 47.46161 | 8.56386 | 1391 ft | 0 kts | 324° |
| 2026-04-26 21:15 | 47.46161 | 8.56385 | 1391 ft | 0 kts | 324° |
| 2026-04-26 21:15 | 47.46205 | 8.56335 | 1392 ft | 24 kts | 320° |
| 2026-04-26 21:16 | 47.46509 | 8.55922 | 1391 ft | 92 kts | 318° |
| 2026-04-26 21:16 | 47.47140 | 8.55062 | 1390 ft | 153 kts | 317° |
| 2026-04-26 21:16 | 47.48047 | 8.53806 | 1526 ft | 193 kts | 316° |
| 2026-04-26 21:16 | 47.48960 | 8.52516 | 2351 ft | 182 kts | 322° |
| 2026-04-26 21:17 | 47.50063 | 8.51448 | 2714 ft | 195 kts | 331° |
| 2026-04-26 21:17 | 47.51298 | 8.50404 | 2973 ft | 208 kts | 333° |
| 2026-04-26 21:17 | 47.52574 | 8.49274 | 3248 ft | 221 kts | 321° |
| 2026-04-26 21:17 | 47.53544 | 8.47484 | 3651 ft | 229 kts | 296° |
| 2026-04-26 21:18 | 47.53971 | 8.45234 | 4137 ft | 231 kts | 274° |
| 2026-04-26 21:18 | 47.53784 | 8.42916 | 4694 ft | 229 kts | 251° |
| 2026-04-26 21:18 | 47.52996 | 8.40890 | 5121 ft | 231 kts | 226° |
| 2026-04-26 21:18 | 47.51960 | 8.39101 | 5596 ft | 231 kts | 238° |
| 2026-04-26 21:19 | 47.51009 | 8.37136 | 5854 ft | 243 kts | 223° |
| 2026-04-26 21:19 | 47.49517 | 8.35852 | 5975 ft | 258 kts | 193° |
| 2026-04-26 21:19 | 47.47721 | 8.35858 | 6327 ft | 264 kts | 163° |
| 2026-04-26 21:19 | 47.46075 | 8.37176 | 6607 ft | 275 kts | 134° |
| 2026-04-26 21:20 | 47.45019 | 8.39542 | 7018 ft | 280 kts | 107° |
| 2026-04-26 21:20 | 47.44801 | 8.42386 | 7537 ft | 282 kts | 80° |
| 2026-04-26 21:20 | 47.45297 | 8.45175 | 8103 ft | 284 kts | 76° |
| 2026-04-26 21:20 | 47.45622 | 8.48105 | 8653 ft | 289 kts | 85° |
| 2026-04-26 21:21 | 47.45706 | 8.51043 | 9216 ft | 292 kts | 89° |
| 2026-04-26 21:21 | 47.45716 | 8.54066 | 9769 ft | 296 kts | 90° |
| 2026-04-26 21:21 | 47.45761 | 8.57130 | 10295 ft | 299 kts | 86° |
| 2026-04-26 21:21 | 47.45895 | 8.60238 | 10584 ft | 312 kts | 85° |
| 2026-04-26 21:22 | 47.46031 | 8.63514 | 10802 ft | 328 kts | 86° |
| 2026-04-26 21:22 | 47.46160 | 8.66945 | 11009 ft | 344 kts | 86° |
| 2026-04-26 21:22 | 47.46292 | 8.70538 | 11229 ft | 359 kts | 86° |
| 2026-04-26 21:23 | 47.46575 | 8.78198 | 11955 ft | 381 kts | 86° |
| 2026-04-26 21:23 | 47.46601 | 8.82128 | 12512 ft | 386 kts | 94° |
| 2026-04-26 21:23 | 47.46173 | 8.86086 | 13062 ft | 391 kts | 101° |
| 2026-04-26 21:23 | 47.45601 | 8.90018 | 13615 ft | 394 kts | 102° |
| 2026-04-26 21:24 | 47.45031 | 8.93971 | 14090 ft | 399 kts | 101° |
| 2026-04-26 21:24 | 47.44453 | 8.98019 | 14701 ft | 401 kts | 101° |
| 2026-04-26 21:24 | 47.43879 | 9.02025 | 15281 ft | 404 kts | 101° |
| 2026-04-26 21:24 | 47.43289 | 9.06122 | 15796 ft | 408 kts | 101° |
| 2026-04-26 21:25 | 47.42694 | 9.10246 | 16330 ft | 412 kts | 101° |
| 2026-04-26 21:25 | 47.42100 | 9.14345 | 16862 ft | 415 kts | 101° |
| 2026-04-26 21:25 | 47.41660 | 9.18576 | 17335 ft | 418 kts | 91° |
| 2026-04-26 21:25 | 47.41727 | 9.22888 | 17837 ft | 420 kts | 81° |
| 2026-04-26 21:26 | 47.42250 | 9.27066 | 18356 ft | 421 kts | 75° |
| 2026-04-26 21:26 | 47.42901 | 9.31289 | 18888 ft | 423 kts | 75° |
| 2026-04-26 21:26 | 47.43560 | 9.35556 | 19334 ft | 427 kts | 75° |
| 2026-04-26 21:26 | 47.44213 | 9.39819 | 19847 ft | 430 kts | 75° |
| 2026-04-26 21:27 | 47.44870 | 9.44139 | 20301 ft | 433 kts | 75° |
| 2026-04-26 21:27 | 47.45536 | 9.48537 | 20814 ft | 436 kts | 75° |
| 2026-04-26 21:27 | 47.46197 | 9.52931 | 21267 ft | 439 kts | 75° |
| 2026-04-26 21:27 | 47.46838 | 9.57352 | 21692 ft | 443 kts | 78° |
| 2026-04-26 21:28 | 47.47097 | 9.61897 | 22095 ft | 449 kts | 88° |
| 2026-04-26 21:28 | 47.46931 | 9.66502 | 22496 ft | 453 kts | 92° |
| 2026-04-26 21:28 | 47.46678 | 9.71218 | 22870 ft | 457 kts | 93° |
| 2026-04-26 21:28 | 47.46422 | 9.75867 | 23239 ft | 460 kts | 93° |
| 2026-04-26 21:29 | 47.46159 | 9.80600 | 23657 ft | 462 kts | 92° |
| 2026-04-26 21:29 | 47.45894 | 9.85345 | 24079 ft | 464 kts | 93° |
| 2026-04-26 21:29 | 47.45627 | 9.90095 | 24479 ft | 467 kts | 93° |
| 2026-04-26 21:29 | 47.45353 | 9.94941 | 24843 ft | 470 kts | 93° |
| 2026-04-26 21:30 | 47.45076 | 9.99806 | 25203 ft | 472 kts | 93° |
| 2026-04-26 21:30 | 47.44797 | 10.04665 | 25543 ft | 475 kts | 93° |
| 2026-04-26 21:30 | 47.44513 | 10.09567 | 25870 ft | 478 kts | 93° |
| 2026-04-26 21:30 | 47.44227 | 10.14481 | 26246 ft | 480 kts | 93° |
| 2026-04-26 21:31 | 47.43845 | 10.19398 | 26581 ft | 484 kts | 98° |
| 2026-04-26 21:31 | 47.43201 | 10.24418 | 26944 ft | 486 kts | 99° |
| 2026-04-26 21:31 | 47.42539 | 10.29336 | 27289 ft | 489 kts | 99° |
| 2026-04-26 21:31 | 47.41907 | 10.34004 | 27587 ft | 491 kts | 100° |
| 2026-04-26 21:32 | 47.41209 | 10.39149 | 27933 ft | 494 kts | 100° |
| 2026-04-26 21:32 | 47.40504 | 10.44335 | 28287 ft | 496 kts | 100° |
| 2026-04-26 21:32 | 47.39794 | 10.49533 | 28639 ft | 498 kts | 100° |
| 2026-04-26 21:32 | 47.39101 | 10.54573 | 28925 ft | 501 kts | 100° |
| 2026-04-26 21:33 | 47.38401 | 10.59638 | 29216 ft | 504 kts | 100° |
| 2026-04-26 21:33 | 47.37694 | 10.64740 | 29530 ft | 506 kts | 100° |
| 2026-04-26 21:33 | 47.36974 | 10.69913 | 29951 ft | 505 kts | 101° |
| 2026-04-26 21:33 | 47.36268 | 10.74980 | 30408 ft | 504 kts | 101° |
| 2026-04-26 21:34 | 47.35556 | 10.80067 | 30850 ft | 503 kts | 101° |
| 2026-04-26 21:34 | 47.34849 | 10.85098 | 31237 ft | 502 kts | 101° |
| 2026-04-26 21:34 | 47.33423 | 10.95202 | 31308 ft | 504 kts | 101° |
| 2026-04-26 21:35 | 47.31988 | 11.05305 | 31307 ft | 500 kts | 101° |
| 2026-04-26 21:35 | 47.30503 | 11.15691 | 31286 ft | 502 kts | 101° |
| 2026-04-26 21:36 | 47.29010 | 11.26058 | 31238 ft | 502 kts | 101° |
| 2026-04-26 21:36 | 47.27524 | 11.36309 | 31230 ft | 503 kts | 102° |
| 2026-04-26 21:37 | 47.26014 | 11.46660 | 31242 ft | 503 kts | 102° |
| 2026-04-26 21:37 | 47.24648 | 11.56985 | 31265 ft | 505 kts | 98° |
| 2026-04-26 21:38 | 47.23555 | 11.67418 | 31292 ft | 505 kts | 99° |
| 2026-04-26 21:38 | 47.22451 | 11.77735 | 31281 ft | 505 kts | 99° |
| 2026-04-26 21:39 | 47.21304 | 11.88238 | 31283 ft | 506 kts | 99° |
| 2026-04-26 21:39 | 47.20269 | 11.98546 | 31272 ft | 507 kts | 98° |
| 2026-04-26 21:40 | 47.19285 | 12.08834 | 31269 ft | 508 kts | 98° |
| 2026-04-26 21:40 | 47.18282 | 12.19139 | 31283 ft | 506 kts | 98° |
| 2026-04-26 21:41 | 47.17249 | 12.29615 | 31285 ft | 506 kts | 98° |
| 2026-04-26 21:41 | 47.16214 | 12.39992 | 31287 ft | 507 kts | 98° |
| 2026-04-26 21:42 | 47.15151 | 12.50534 | 31290 ft | 506 kts | 98° |
| 2026-04-26 21:42 | 47.14087 | 12.60975 | 31284 ft | 507 kts | 98° |
| 2026-04-26 21:43 | 47.13028 | 12.71274 | 31263 ft | 507 kts | 99° |
| 2026-04-26 21:43 | 47.11953 | 12.81627 | 31251 ft | 507 kts | 99° |
| 2026-04-26 21:44 | 47.10886 | 12.91815 | 31254 ft | 509 kts | 99° |
| 2026-04-26 21:44 | 47.09806 | 13.02027 | 31247 ft | 507 kts | 99° |
| 2026-04-26 21:45 | 47.08717 | 13.12242 | 31250 ft | 507 kts | 99° |
| 2026-04-26 21:45 | 47.07611 | 13.22527 | 31247 ft | 506 kts | 99° |
| 2026-04-26 21:46 | 47.06490 | 13.32856 | 31249 ft | 507 kts | 99° |
| 2026-04-26 21:46 | 47.05359 | 13.43186 | 31250 ft | 507 kts | 99° |
| 2026-04-26 21:47 | 47.04209 | 13.53600 | 31251 ft | 506 kts | 99° |
| 2026-04-26 21:47 | 47.03044 | 13.64063 | 31248 ft | 506 kts | 99° |
| 2026-04-26 21:48 | 47.01889 | 13.74351 | 31233 ft | 506 kts | 100° |
| 2026-04-26 21:48 | 47.00727 | 13.84610 | 31239 ft | 505 kts | 100° |
| 2026-04-26 21:49 | 46.99561 | 13.94816 | 31247 ft | 504 kts | 100° |
| 2026-04-26 21:49 | 46.98392 | 14.04974 | 31252 ft | 506 kts | 100° |
| 2026-04-26 21:50 | 46.97210 | 14.15160 | 31252 ft | 506 kts | 100° |
| 2026-04-26 21:50 | 46.96016 | 14.25354 | 31254 ft | 508 kts | 100° |
| 2026-04-26 21:51 | 46.94810 | 14.35578 | 31250 ft | 507 kts | 99° |
| 2026-04-26 21:51 | 46.93584 | 14.45895 | 31260 ft | 508 kts | 99° |
| 2026-04-26 21:52 | 46.92366 | 14.56056 | 31252 ft | 506 kts | 99° |
| 2026-04-26 21:52 | 46.91129 | 14.66295 | 31261 ft | 509 kts | 100° |
| 2026-04-26 21:53 | 46.89877 | 14.76578 | 31272 ft | 507 kts | 100° |
| 2026-04-26 21:53 | 46.88621 | 14.86822 | 31259 ft | 508 kts | 100° |
| 2026-04-26 21:54 | 46.87369 | 14.96942 | 31247 ft | 507 kts | 100° |
| 2026-04-26 21:54 | 46.86101 | 15.07122 | 31259 ft | 508 kts | 100° |
| 2026-04-26 21:55 | 46.84819 | 15.17334 | 31268 ft | 507 kts | 100° |
| 2026-04-26 21:55 | 46.83528 | 15.27545 | 31291 ft | 508 kts | 100° |
| 2026-04-26 21:56 | 46.82230 | 15.37730 | 31297 ft | 508 kts | 100° |
| 2026-04-26 21:56 | 46.80919 | 15.47946 | 31298 ft | 508 kts | 100° |
| 2026-04-26 21:57 | 46.79597 | 15.58167 | 31316 ft | 507 kts | 100° |
| 2026-04-26 21:57 | 46.78272 | 15.68341 | 31300 ft | 508 kts | 101° |
| 2026-04-26 21:58 | 46.76932 | 15.78549 | 31294 ft | 507 kts | 101° |
| 2026-04-26 21:58 | 46.75575 | 15.88814 | 31295 ft | 508 kts | 101° |
| 2026-04-26 21:59 | 46.74220 | 15.98991 | 31288 ft | 507 kts | 101° |
| 2026-04-26 21:59 | 46.72868 | 16.09070 | 31279 ft | 508 kts | 100° |
| 2026-04-26 22:00 | 46.71502 | 16.19188 | 31280 ft | 507 kts | 100° |
| 2026-04-26 22:00 | 46.70135 | 16.29244 | 31280 ft | 507 kts | 100° |
| 2026-04-26 22:01 | 46.68765 | 16.39247 | 31281 ft | 507 kts | 100° |
| 2026-04-26 22:01 | 46.67670 | 16.49324 | 31288 ft | 506 kts | 94° |
| 2026-04-26 22:02 | 46.67037 | 16.59520 | 31283 ft | 506 kts | 94° |
| 2026-04-26 22:02 | 46.66366 | 16.69705 | 31281 ft | 506 kts | 95° |
| 2026-04-26 22:03 | 46.65662 | 16.79907 | 31274 ft | 506 kts | 95° |
| 2026-04-26 22:03 | 46.64939 | 16.90060 | 31278 ft | 506 kts | 95° |
| 2026-04-26 22:04 | 46.64197 | 17.00255 | 31280 ft | 506 kts | 95° |
| 2026-04-26 22:04 | 46.63442 | 17.10449 | 31280 ft | 506 kts | 95° |
| 2026-04-26 22:05 | 46.62674 | 17.20673 | 31278 ft | 506 kts | 95° |
| 2026-04-26 22:05 | 46.61893 | 17.30927 | 31280 ft | 506 kts | 95° |
| 2026-04-26 22:06 | 46.61109 | 17.41081 | 31282 ft | 505 kts | 95° |
| 2026-04-26 22:06 | 46.60312 | 17.51300 | 31282 ft | 506 kts | 95° |
| 2026-04-26 22:07 | 46.59505 | 17.61508 | 31283 ft | 506 kts | 95° |
| 2026-04-26 22:07 | 46.58696 | 17.71623 | 31275 ft | 506 kts | 96° |
| 2026-04-26 22:08 | 46.57871 | 17.81831 | 31270 ft | 506 kts | 96° |
| 2026-04-26 22:08 | 46.57036 | 17.92039 | 31267 ft | 507 kts | 96° |
| 2026-04-26 22:09 | 46.56191 | 18.02258 | 31269 ft | 506 kts | 96° |
| 2026-04-26 22:09 | 46.55341 | 18.12430 | 31270 ft | 507 kts | 96° |
| 2026-04-26 22:10 | 46.54478 | 18.22640 | 31273 ft | 506 kts | 96° |
| 2026-04-26 22:10 | 46.53610 | 18.32806 | 31272 ft | 506 kts | 96° |
| 2026-04-26 22:11 | 46.52727 | 18.43028 | 31270 ft | 507 kts | 96° |
| 2026-04-26 22:11 | 46.51835 | 18.53252 | 31273 ft | 507 kts | 96° |
| 2026-04-26 22:12 | 46.50940 | 18.63397 | 31273 ft | 507 kts | 96° |
| 2026-04-26 22:12 | 46.50032 | 18.73586 | 31269 ft | 507 kts | 96° |
| 2026-04-26 22:13 | 46.49115 | 18.83779 | 31273 ft | 508 kts | 96° |
| 2026-04-26 22:13 | 46.48185 | 18.94011 | 31274 ft | 508 kts | 97° |
| 2026-04-26 22:14 | 46.47253 | 19.04158 | 31272 ft | 507 kts | 96° |
| 2026-04-26 22:14 | 46.46313 | 19.14282 | 31273 ft | 508 kts | 96° |
| 2026-04-26 22:15 | 46.45356 | 19.24504 | 31267 ft | 507 kts | 96° |
| 2026-04-26 22:15 | 46.44397 | 19.34637 | 31267 ft | 508 kts | 96° |
| 2026-04-26 22:16 | 46.43430 | 19.44766 | 31268 ft | 509 kts | 96° |
| 2026-04-26 22:16 | 46.42446 | 19.54964 | 31272 ft | 509 kts | 96° |
| 2026-04-26 22:17 | 46.41460 | 19.65094 | 31272 ft | 509 kts | 97° |
| 2026-04-26 22:17 | 46.40447 | 19.75395 | 31266 ft | 511 kts | 97° |
| 2026-04-26 22:18 | 46.39442 | 19.85524 | 31267 ft | 509 kts | 97° |
| 2026-04-26 22:18 | 46.38421 | 19.95721 | 31270 ft | 510 kts | 97° |
| 2026-04-26 22:19 | 46.37390 | 20.05918 | 31270 ft | 509 kts | 97° |
| 2026-04-26 22:19 | 46.36354 | 20.16078 | 31271 ft | 511 kts | 97° |
| 2026-04-26 22:20 | 46.35304 | 20.26280 | 31273 ft | 512 kts | 97° |
| 2026-04-26 22:20 | 46.34244 | 20.36483 | 31280 ft | 512 kts | 97° |
| 2026-04-26 22:21 | 46.33176 | 20.46684 | 31278 ft | 513 kts | 97° |
| 2026-04-26 22:21 | 46.32095 | 20.56911 | 31277 ft | 513 kts | 97° |
| 2026-04-26 22:22 | 46.31002 | 20.67160 | 31262 ft | 513 kts | 98° |
| 2026-04-26 22:22 | 46.29904 | 20.77366 | 31247 ft | 514 kts | 98° |
| 2026-04-26 22:23 | 46.28793 | 20.87598 | 31238 ft | 515 kts | 98° |
| 2026-04-26 22:23 | 46.27675 | 20.97818 | 31237 ft | 515 kts | 98° |
| 2026-04-26 22:24 | 46.26496 | 21.08093 | 31236 ft | 516 kts | 102° |
| 2026-04-26 22:24 | 46.24332 | 21.17945 | 31246 ft | 517 kts | 109° |
| 2026-04-26 22:25 | 46.21929 | 21.27739 | 31252 ft | 516 kts | 109° |
| 2026-04-26 22:25 | 46.19504 | 21.37508 | 31250 ft | 517 kts | 109° |
| 2026-04-26 22:26 | 46.17041 | 21.47346 | 31247 ft | 517 kts | 109° |
| 2026-04-26 22:26 | 46.14575 | 21.57136 | 31238 ft | 518 kts | 109° |
| 2026-04-26 22:27 | 46.12108 | 21.66875 | 31227 ft | 517 kts | 110° |
| 2026-04-26 22:27 | 46.09605 | 21.76707 | 31225 ft | 518 kts | 110° |
| 2026-04-26 22:28 | 46.07108 | 21.86476 | 31223 ft | 517 kts | 110° |
| 2026-04-26 22:28 | 46.04615 | 21.96182 | 31222 ft | 517 kts | 110° |
| 2026-04-26 22:29 | 46.02108 | 22.05900 | 31223 ft | 517 kts | 110° |
| 2026-04-26 22:29 | 45.99584 | 22.15645 | 31233 ft | 518 kts | 110° |
| 2026-04-26 22:30 | 45.97063 | 22.25336 | 31235 ft | 516 kts | 110° |
| 2026-04-26 22:30 | 45.94532 | 22.35023 | 31230 ft | 517 kts | 110° |
| 2026-04-26 22:31 | 45.91983 | 22.44741 | 31230 ft | 519 kts | 110° |
| 2026-04-26 22:31 | 45.89429 | 22.54439 | 31221 ft | 518 kts | 110° |
| 2026-04-26 22:32 | 45.86859 | 22.64156 | 31214 ft | 520 kts | 110° |
| 2026-04-26 22:32 | 45.84289 | 22.73832 | 31210 ft | 519 kts | 111° |
| 2026-04-26 22:33 | 45.80406 | 22.88379 | 31212 ft | 520 kts | 111° |
| 2026-04-26 22:34 | 45.77792 | 22.98120 | 31222 ft | 520 kts | 111° |
| 2026-04-26 22:34 | 45.75182 | 23.07806 | 31220 ft | 519 kts | 111° |
| 2026-04-26 22:35 | 45.72548 | 23.17545 | 31213 ft | 520 kts | 111° |
| 2026-04-26 22:35 | 45.69917 | 23.27230 | 31207 ft | 519 kts | 111° |
| 2026-04-26 22:36 | 45.67294 | 23.36849 | 31196 ft | 520 kts | 111° |
| 2026-04-26 22:36 | 45.64657 | 23.46480 | 31182 ft | 522 kts | 111° |
| 2026-04-26 22:37 | 45.61985 | 23.56199 | 31181 ft | 522 kts | 111° |
| 2026-04-26 22:37 | 45.59386 | 23.65614 | 31175 ft | 522 kts | 111° |
| 2026-04-26 22:38 | 45.56701 | 23.75306 | 31165 ft | 523 kts | 111° |
| 2026-04-26 22:38 | 45.54014 | 23.84962 | 31170 ft | 523 kts | 111° |
| 2026-04-26 22:39 | 45.51322 | 23.94600 | 31176 ft | 523 kts | 111° |
| 2026-04-26 22:39 | 45.48605 | 24.04289 | 31168 ft | 524 kts | 111° |
| 2026-04-26 22:40 | 45.45889 | 24.13934 | 31183 ft | 526 kts | 112° |
| 2026-04-26 22:40 | 45.43153 | 24.23614 | 31185 ft | 524 kts | 112° |
| 2026-04-26 22:41 | 45.40420 | 24.33245 | 31188 ft | 525 kts | 111° |
| 2026-04-26 22:41 | 45.37685 | 24.42845 | 31174 ft | 523 kts | 111° |
| 2026-04-26 22:42 | 45.34941 | 24.52438 | 31172 ft | 524 kts | 112° |
| 2026-04-26 22:42 | 45.32196 | 24.61999 | 31172 ft | 523 kts | 111° |
| 2026-04-26 22:43 | 45.29402 | 24.71692 | 31166 ft | 526 kts | 112° |
| 2026-04-26 22:43 | 45.26620 | 24.81305 | 31169 ft | 523 kts | 112° |
| 2026-04-26 22:44 | 45.23835 | 24.90893 | 31185 ft | 526 kts | 112° |
| 2026-04-26 22:44 | 45.21033 | 25.00501 | 31193 ft | 525 kts | 112° |
| 2026-04-26 22:45 | 45.18210 | 25.10144 | 31187 ft | 525 kts | 112° |
| 2026-04-26 22:45 | 45.15390 | 25.19738 | 31181 ft | 527 kts | 112° |
| 2026-04-26 22:46 | 45.12568 | 25.29305 | 31178 ft | 525 kts | 112° |
| 2026-04-26 22:46 | 45.09729 | 25.38891 | 31181 ft | 526 kts | 112° |
| 2026-04-26 22:47 | 45.06899 | 25.48411 | 31185 ft | 526 kts | 112° |
| 2026-04-26 22:47 | 45.04045 | 25.57976 | 31192 ft | 526 kts | 112° |
| 2026-04-26 22:48 | 45.01210 | 25.67441 | 31188 ft | 525 kts | 113° |
| 2026-04-26 22:48 | 44.98332 | 25.77014 | 31190 ft | 524 kts | 113° |
| 2026-04-26 22:49 | 44.95481 | 25.86461 | 31190 ft | 525 kts | 113° |
| 2026-04-26 22:49 | 44.92592 | 25.95998 | 31192 ft | 524 kts | 113° |
| 2026-04-26 22:50 | 44.89713 | 26.05468 | 31194 ft | 525 kts | 113° |
| 2026-04-26 22:50 | 44.86817 | 26.14958 | 31193 ft | 524 kts | 113° |
| 2026-04-26 22:51 | 44.83905 | 26.24464 | 31196 ft | 526 kts | 113° |
| 2026-04-26 22:51 | 44.80989 | 26.33947 | 31201 ft | 525 kts | 113° |
| 2026-04-26 22:52 | 44.78062 | 26.43434 | 31206 ft | 527 kts | 113° |
| 2026-04-26 22:52 | 44.75155 | 26.52820 | 31205 ft | 526 kts | 113° |
| 2026-04-26 22:53 | 44.72197 | 26.62293 | 31205 ft | 525 kts | 115° |
| 2026-04-26 22:53 | 44.68494 | 26.71185 | 31200 ft | 525 kts | 123° |
| 2026-04-26 22:54 | 44.64584 | 26.79894 | 31207 ft | 526 kts | 123° |
| 2026-04-26 22:54 | 44.60652 | 26.88578 | 31210 ft | 522 kts | 123° |
| 2026-04-26 22:55 | 44.56736 | 26.97181 | 31214 ft | 522 kts | 123° |
| 2026-04-26 22:55 | 44.52793 | 27.05800 | 31214 ft | 520 kts | 123° |
| 2026-04-26 22:56 | 44.48868 | 27.14351 | 31218 ft | 520 kts | 123° |
| 2026-04-26 22:56 | 44.44920 | 27.22921 | 31215 ft | 522 kts | 123° |
| 2026-04-26 22:57 | 44.40959 | 27.31490 | 31220 ft | 523 kts | 123° |
| 2026-04-26 22:57 | 44.37016 | 27.39995 | 31220 ft | 521 kts | 123° |
| 2026-04-26 22:58 | 44.33043 | 27.48537 | 31223 ft | 521 kts | 123° |
| 2026-04-26 22:58 | 44.29072 | 27.57052 | 31224 ft | 520 kts | 123° |
| 2026-04-26 22:59 | 44.25116 | 27.65509 | 31224 ft | 519 kts | 124° |
| 2026-04-26 22:59 | 44.21108 | 27.74051 | 31217 ft | 519 kts | 124° |
| 2026-04-26 23:00 | 44.17173 | 27.82412 | 31217 ft | 517 kts | 124° |
| 2026-04-26 23:00 | 44.13210 | 27.90811 | 31218 ft | 519 kts | 124° |
| 2026-04-26 23:01 | 44.09230 | 27.99219 | 31216 ft | 518 kts | 124° |
| 2026-04-26 23:01 | 44.05242 | 28.07621 | 31218 ft | 517 kts | 124° |
| 2026-04-26 23:02 | 44.01253 | 28.16002 | 31213 ft | 516 kts | 123° |
| 2026-04-26 23:02 | 43.97277 | 28.24330 | 31209 ft | 518 kts | 124° |
| 2026-04-26 23:03 | 43.93284 | 28.32670 | 31207 ft | 516 kts | 123° |
| 2026-04-26 23:03 | 43.89314 | 28.40937 | 31199 ft | 515 kts | 123° |
| 2026-04-26 23:04 | 43.85316 | 28.49240 | 31199 ft | 516 kts | 123° |
| 2026-04-26 23:04 | 43.81317 | 28.57523 | 31191 ft | 515 kts | 123° |
| 2026-04-26 23:05 | 43.77319 | 28.65778 | 31190 ft | 515 kts | 124° |
| 2026-04-26 23:05 | 43.73288 | 28.74080 | 31176 ft | 514 kts | 124° |
| 2026-04-26 23:06 | 43.69307 | 28.82243 | 31171 ft | 514 kts | 125° |
| 2026-04-26 23:06 | 43.65098 | 28.90308 | 31176 ft | 514 kts | 126° |
| 2026-04-26 23:07 | 43.60897 | 28.98287 | 31174 ft | 515 kts | 126° |
| 2026-04-26 23:07 | 43.56654 | 29.06342 | 31168 ft | 513 kts | 126° |
| 2026-04-26 23:08 | 43.52419 | 29.14369 | 31169 ft | 514 kts | 126° |
| 2026-04-26 23:08 | 43.48225 | 29.22304 | 31171 ft | 513 kts | 126° |
| 2026-04-26 23:09 | 43.44024 | 29.30233 | 31168 ft | 512 kts | 126° |
| 2026-04-26 23:09 | 43.39812 | 29.38164 | 31167 ft | 512 kts | 126° |
| 2026-04-26 23:10 | 43.35604 | 29.46065 | 31168 ft | 511 kts | 126° |
| 2026-04-26 23:10 | 43.31362 | 29.54011 | 31170 ft | 513 kts | 126° |
| 2026-04-26 23:11 | 43.27069 | 29.62029 | 31165 ft | 510 kts | 126° |
| 2026-04-26 23:11 | 43.22827 | 29.69932 | 31159 ft | 509 kts | 127° |
| 2026-04-26 23:12 | 43.18532 | 29.77913 | 31158 ft | 509 kts | 127° |
| 2026-04-26 23:12 | 43.14275 | 29.85802 | 31162 ft | 510 kts | 127° |
| 2026-04-26 23:13 | 43.10042 | 29.93623 | 31159 ft | 510 kts | 126° |
| 2026-04-26 23:13 | 43.05829 | 30.01390 | 31158 ft | 511 kts | 127° |
| 2026-04-26 23:14 | 43.01617 | 30.09133 | 31157 ft | 508 kts | 127° |
| 2026-04-26 23:14 | 42.97384 | 30.16894 | 31155 ft | 509 kts | 127° |
| 2026-04-26 23:15 | 42.93160 | 30.24620 | 31156 ft | 508 kts | 126° |
| 2026-04-26 23:15 | 42.88968 | 30.32265 | 31148 ft | 507 kts | 126° |
| 2026-04-26 23:16 | 42.84721 | 30.39993 | 31149 ft | 505 kts | 126° |
| 2026-04-26 23:16 | 42.80511 | 30.47633 | 31146 ft | 505 kts | 126° |
| 2026-04-26 23:17 | 42.76305 | 30.55263 | 31135 ft | 505 kts | 124° |
| 2026-04-26 23:17 | 42.73103 | 30.63642 | 31136 ft | 502 kts | 107° |
| 2026-04-26 23:18 | 42.71241 | 30.72836 | 31129 ft | 503 kts | 103° |
| 2026-04-26 23:18 | 42.69486 | 30.81970 | 31130 ft | 502 kts | 103° |
| 2026-04-26 23:19 | 42.67704 | 30.91125 | 31123 ft | 502 kts | 103° |
| 2026-04-26 23:19 | 42.65913 | 31.00241 | 31132 ft | 503 kts | 103° |
| 2026-04-26 23:20 | 42.64098 | 31.09414 | 31122 ft | 499 kts | 103° |
| 2026-04-26 23:20 | 42.62294 | 31.18474 | 31121 ft | 499 kts | 103° |
| 2026-04-26 23:21 | 42.60472 | 31.27582 | 31125 ft | 501 kts | 103° |
| 2026-04-26 23:21 | 42.58645 | 31.36665 | 31120 ft | 500 kts | 103° |
| 2026-04-26 23:22 | 42.56810 | 31.45747 | 31122 ft | 500 kts | 103° |
| 2026-04-26 23:22 | 42.54956 | 31.54877 | 31120 ft | 500 kts | 103° |
| 2026-04-26 23:23 | 42.53099 | 31.63985 | 31118 ft | 499 kts | 103° |
| 2026-04-26 23:23 | 42.51241 | 31.73056 | 31126 ft | 501 kts | 104° |
| 2026-04-26 23:24 | 42.49381 | 31.82094 | 31117 ft | 500 kts | 104° |
| 2026-04-26 23:24 | 42.47514 | 31.91131 | 31110 ft | 499 kts | 104° |
| 2026-04-26 23:25 | 42.45640 | 32.00158 | 31110 ft | 499 kts | 104° |
| 2026-04-26 23:25 | 42.43754 | 32.09204 | 31116 ft | 499 kts | 104° |
| 2026-04-26 23:26 | 42.41866 | 32.18222 | 31115 ft | 500 kts | 104° |
| 2026-04-26 23:26 | 42.39967 | 32.27252 | 31111 ft | 500 kts | 104° |
| 2026-04-26 23:27 | 42.38062 | 32.36270 | 31114 ft | 501 kts | 104° |
| 2026-04-26 23:27 | 42.36149 | 32.45289 | 31113 ft | 501 kts | 104° |
| 2026-04-26 23:28 | 42.34234 | 32.54277 | 31113 ft | 501 kts | 104° |
| 2026-04-26 23:28 | 42.32920 | 32.63451 | 31119 ft | 497 kts | 94° |
| 2026-04-26 23:29 | 42.32219 | 32.72757 | 31110 ft | 498 kts | 94° |
| 2026-04-26 23:29 | 42.31509 | 32.82056 | 31110 ft | 499 kts | 94° |
| 2026-04-26 23:30 | 42.30780 | 32.91393 | 31112 ft | 500 kts | 94° |
| 2026-04-26 23:30 | 42.30044 | 33.00685 | 31110 ft | 499 kts | 94° |
| 2026-04-26 23:31 | 42.29297 | 33.09990 | 31107 ft | 499 kts | 94° |
| 2026-04-26 23:31 | 42.28545 | 33.19248 | 31112 ft | 500 kts | 94° |
| 2026-04-26 23:32 | 42.27781 | 33.28550 | 31109 ft | 500 kts | 94° |
| 2026-04-26 23:32 | 42.27011 | 33.37838 | 31108 ft | 500 kts | 94° |
| 2026-04-26 23:33 | 42.26230 | 33.47154 | 31105 ft | 499 kts | 94° |
| 2026-04-26 23:33 | 42.25442 | 33.56461 | 31103 ft | 500 kts | 94° |
| 2026-04-26 23:34 | 42.24646 | 33.65770 | 31100 ft | 499 kts | 95° |
| 2026-04-26 23:34 | 42.23844 | 33.75052 | 31098 ft | 500 kts | 95° |
| 2026-04-26 23:35 | 42.23036 | 33.84329 | 31089 ft | 499 kts | 95° |
| 2026-04-26 23:35 | 42.22220 | 33.93597 | 31087 ft | 499 kts | 95° |
| 2026-04-26 23:36 | 42.21394 | 34.02905 | 31089 ft | 499 kts | 95° |
| 2026-04-26 23:36 | 42.20564 | 34.12165 | 31087 ft | 499 kts | 95° |
| 2026-04-26 23:37 | 42.19724 | 34.21442 | 31085 ft | 499 kts | 95° |
| 2026-04-26 23:37 | 42.18876 | 34.30734 | 31075 ft | 499 kts | 95° |
| 2026-04-26 23:38 | 42.18028 | 34.39936 | 31075 ft | 499 kts | 95° |
| 2026-04-26 23:38 | 42.17167 | 34.49191 | 31075 ft | 499 kts | 95° |
| 2026-04-26 23:39 | 42.16298 | 34.58460 | 31068 ft | 499 kts | 95° |
| 2026-04-26 23:39 | 42.15426 | 34.67675 | 31069 ft | 498 kts | 96° |
| 2026-04-26 23:40 | 42.14545 | 34.76905 | 31059 ft | 500 kts | 96° |
| 2026-04-26 23:40 | 42.13650 | 34.86197 | 31057 ft | 499 kts | 96° |
| 2026-04-26 23:41 | 42.12749 | 34.95476 | 31049 ft | 500 kts | 96° |
| 2026-04-26 23:41 | 42.11847 | 35.04691 | 31053 ft | 499 kts | 96° |
| 2026-04-26 23:42 | 42.10919 | 35.14083 | 31048 ft | 500 kts | 96° |
| 2026-04-26 23:42 | 42.09521 | 35.28088 | 31044 ft | 498 kts | 96° |
| 2026-04-26 23:43 | 42.08581 | 35.37406 | 31041 ft | 500 kts | 96° |
| 2026-04-26 23:43 | 42.07638 | 35.46671 | 31041 ft | 498 kts | 96° |
| 2026-04-26 23:44 | 42.06684 | 35.55978 | 31046 ft | 501 kts | 96° |
| 2026-04-26 23:44 | 42.05708 | 35.65410 | 31053 ft | 502 kts | 97° |
| 2026-04-26 23:45 | 42.04713 | 35.74962 | 31045 ft | 501 kts | 97° |
| 2026-04-26 23:45 | 42.03736 | 35.84257 | 31042 ft | 501 kts | 97° |
| 2026-04-26 23:46 | 42.02756 | 35.93505 | 31035 ft | 500 kts | 97° |
| 2026-04-26 23:46 | 42.01772 | 36.02716 | 31036 ft | 500 kts | 97° |
| 2026-04-26 23:47 | 42.00771 | 36.12016 | 31037 ft | 501 kts | 97° |
| 2026-04-26 23:47 | 41.99760 | 36.21335 | 31037 ft | 499 kts | 97° |
| 2026-04-26 23:48 | 41.98745 | 36.30632 | 31034 ft | 502 kts | 97° |
| 2026-04-26 23:48 | 41.97729 | 36.39847 | 31037 ft | 501 kts | 97° |
| 2026-04-26 23:49 | 41.96703 | 36.49096 | 31039 ft | 503 kts | 97° |
| 2026-04-26 23:49 | 41.95666 | 36.58369 | 31050 ft | 502 kts | 97° |
| 2026-04-26 23:50 | 41.94628 | 36.67587 | 31047 ft | 500 kts | 98° |
| 2026-04-26 23:50 | 41.93586 | 36.76764 | 31037 ft | 501 kts | 98° |
| 2026-04-26 23:51 | 41.92532 | 36.85986 | 31039 ft | 500 kts | 98° |
| 2026-04-26 23:51 | 41.91471 | 36.95197 | 31035 ft | 502 kts | 98° |
| 2026-04-26 23:52 | 41.90400 | 37.04428 | 31034 ft | 502 kts | 98° |
| 2026-04-26 23:52 | 41.89222 | 37.13685 | 31020 ft | 504 kts | 99° |
| 2026-04-26 23:53 | 41.88005 | 37.22953 | 31010 ft | 503 kts | 99° |
| 2026-04-26 23:53 | 41.86796 | 37.32124 | 31010 ft | 501 kts | 99° |
| 2026-04-26 23:54 | 41.85580 | 37.41305 | 31025 ft | 501 kts | 99° |
| 2026-04-26 23:54 | 41.84344 | 37.50592 | 31008 ft | 502 kts | 99° |
| 2026-04-26 23:55 | 41.83073 | 37.60083 | 31015 ft | 502 kts | 99° |
| 2026-04-26 23:55 | 41.81818 | 37.69398 | 31020 ft | 502 kts | 100° |
| 2026-04-26 23:56 | 41.80551 | 37.78746 | 31005 ft | 504 kts | 100° |
| 2026-04-26 23:56 | 41.79262 | 37.88190 | 31011 ft | 504 kts | 100° |
| 2026-04-26 23:57 | 41.77955 | 37.97709 | 31015 ft | 502 kts | 100° |
| 2026-04-26 23:57 | 41.76663 | 38.07058 | 31014 ft | 503 kts | 100° |
| 2026-04-26 23:58 | 41.75361 | 38.16428 | 31004 ft | 502 kts | 100° |
| 2026-04-26 23:58 | 41.74041 | 38.25862 | 31009 ft | 504 kts | 100° |
| 2026-04-26 23:59 | 41.72746 | 38.35055 | 31006 ft | 504 kts | 100° |
| 2026-04-26 23:59 | 41.71424 | 38.44391 | 31008 ft | 505 kts | 100° |
| 2026-04-27 00:00 | 41.70094 | 38.53724 | 31012 ft | 507 kts | 100° |
| 2026-04-27 00:00 | 41.68729 | 38.63245 | 31011 ft | 507 kts | 100° |
| 2026-04-27 00:01 | 41.67374 | 38.72639 | 31000 ft | 506 kts | 101° |
| 2026-04-27 00:01 | 41.66034 | 38.81869 | 31000 ft | 508 kts | 101° |
| 2026-04-27 00:02 | 41.64689 | 38.91078 | 30996 ft | 508 kts | 101° |
| 2026-04-27 00:02 | 41.63329 | 39.00339 | 31004 ft | 511 kts | 101° |
| 2026-04-27 00:03 | 41.61951 | 39.09668 | 31012 ft | 511 kts | 102° |
| 2026-04-27 00:03 | 41.60538 | 39.19175 | 31011 ft | 513 kts | 101° |
| 2026-04-27 00:04 | 41.59134 | 39.28569 | 31019 ft | 514 kts | 102° |
| 2026-04-27 00:04 | 41.57698 | 39.38115 | 31026 ft | 516 kts | 101° |
| 2026-04-27 00:05 | 41.56263 | 39.47602 | 31018 ft | 514 kts | 102° |
| 2026-04-27 00:05 | 41.54832 | 39.57011 | 31021 ft | 518 kts | 102° |
| 2026-04-27 00:06 | 41.53382 | 39.66487 | 31065 ft | 522 kts | 102° |
| 2026-04-27 00:06 | 41.52650 | 39.71248 | 31475 ft | 522 kts | 102° |
| 2026-04-27 00:06 | 41.51922 | 39.75973 | 32134 ft | 516 kts | 102° |
| 2026-04-27 00:07 | 41.51201 | 39.80640 | 32753 ft | 512 kts | 102° |
| 2026-04-27 00:07 | 41.50480 | 39.85288 | 33010 ft | 513 kts | 102° |
| 2026-04-27 00:07 | 41.49030 | 39.94599 | 33022 ft | 516 kts | 102° |
| 2026-04-27 00:08 | 41.47577 | 40.03879 | 33021 ft | 515 kts | 102° |
| 2026-04-27 00:08 | 41.46112 | 40.13182 | 33023 ft | 515 kts | 102° |
| 2026-04-27 00:09 | 41.44636 | 40.22509 | 33021 ft | 515 kts | 102° |
| 2026-04-27 00:09 | 41.43147 | 40.31863 | 33022 ft | 516 kts | 102° |
| 2026-04-27 00:10 | 41.41657 | 40.41169 | 33023 ft | 517 kts | 102° |
| 2026-04-27 00:10 | 41.40147 | 40.50546 | 33023 ft | 517 kts | 102° |
| 2026-04-27 00:11 | 41.38632 | 40.59909 | 33022 ft | 519 kts | 102° |
| 2026-04-27 00:11 | 41.37113 | 40.69246 | 33018 ft | 519 kts | 103° |
| 2026-04-27 00:12 | 41.35571 | 40.78671 | 33020 ft | 520 kts | 103° |
| 2026-04-27 00:12 | 41.34031 | 40.88030 | 33021 ft | 522 kts | 103° |
| 2026-04-27 00:13 | 41.32477 | 40.97424 | 33020 ft | 521 kts | 103° |
| 2026-04-27 00:13 | 41.30922 | 41.06776 | 33021 ft | 521 kts | 103° |
| 2026-04-27 00:14 | 41.29355 | 41.16150 | 33031 ft | 520 kts | 103° |
| 2026-04-27 00:14 | 41.27779 | 41.25523 | 33035 ft | 521 kts | 103° |
| 2026-04-27 00:15 | 41.26195 | 41.34899 | 33054 ft | 521 kts | 103° |
| 2026-04-27 00:15 | 41.24601 | 41.44286 | 33071 ft | 523 kts | 103° |
| 2026-04-27 00:16 | 41.23006 | 41.53627 | 33081 ft | 520 kts | 103° |
| 2026-04-27 00:16 | 41.21396 | 41.63002 | 33078 ft | 523 kts | 103° |
| 2026-04-27 00:17 | 41.19772 | 41.72417 | 33068 ft | 523 kts | 104° |
| 2026-04-27 00:17 | 41.18150 | 41.81764 | 33065 ft | 524 kts | 104° |
| 2026-04-27 00:18 | 41.16518 | 41.91129 | 33071 ft | 520 kts | 104° |
| 2026-04-27 00:18 | 41.14874 | 42.00509 | 33076 ft | 525 kts | 104° |
| 2026-04-27 00:19 | 41.13222 | 42.09889 | 33074 ft | 523 kts | 104° |
| 2026-04-27 00:19 | 41.11574 | 42.19198 | 33077 ft | 523 kts | 104° |
| 2026-04-27 00:20 | 41.09909 | 42.28554 | 33074 ft | 523 kts | 104° |
| 2026-04-27 00:20 | 41.08238 | 42.37898 | 33092 ft | 526 kts | 104° |
| 2026-04-27 00:21 | 41.06540 | 42.47345 | 33099 ft | 523 kts | 104° |
| 2026-04-27 00:21 | 41.04868 | 42.56604 | 33103 ft | 522 kts | 104° |
| 2026-04-27 00:22 | 41.03168 | 42.65968 | 33103 ft | 525 kts | 105° |
| 2026-04-27 00:22 | 41.01452 | 42.75377 | 33097 ft | 525 kts | 105° |
| 2026-04-27 00:23 | 40.99739 | 42.84715 | 33104 ft | 523 kts | 104° |
| 2026-04-27 00:23 | 40.98012 | 42.94091 | 33109 ft | 524 kts | 104° |
| 2026-04-27 00:24 | 40.96288 | 43.03403 | 33120 ft | 521 kts | 105° |
| 2026-04-27 00:24 | 40.94568 | 43.12646 | 33118 ft | 522 kts | 104° |
| 2026-04-27 00:25 | 40.92834 | 43.21923 | 33104 ft | 520 kts | 104° |
| 2026-04-27 00:25 | 40.91111 | 43.31096 | 33101 ft | 518 kts | 105° |
| 2026-04-27 00:26 | 40.89364 | 43.40351 | 33101 ft | 519 kts | 104° |
| 2026-04-27 00:26 | 40.87594 | 43.49686 | 33095 ft | 516 kts | 104° |
| 2026-04-27 00:27 | 40.85863 | 43.58768 | 33095 ft | 515 kts | 104° |
| 2026-04-27 00:27 | 40.84143 | 43.67933 | 33069 ft | 514 kts | 102° |
| 2026-04-27 00:28 | 40.83555 | 43.77356 | 33037 ft | 513 kts | 92° |
| 2026-04-27 00:28 | 40.83320 | 43.86707 | 33045 ft | 513 kts | 92° |
| 2026-04-27 00:29 | 40.83048 | 43.96095 | 33050 ft | 512 kts | 92° |
| 2026-04-27 00:29 | 40.82753 | 44.05409 | 33075 ft | 511 kts | 92° |
| 2026-04-27 00:30 | 40.82438 | 44.14751 | 33088 ft | 511 kts | 92° |
| 2026-04-27 00:30 | 40.82111 | 44.24081 | 33096 ft | 510 kts | 92° |
| 2026-04-27 00:31 | 40.81771 | 44.33445 | 33114 ft | 509 kts | 92° |
| 2026-04-27 00:31 | 40.81425 | 44.42761 | 33102 ft | 511 kts | 92° |
| 2026-04-27 00:32 | 40.81072 | 44.52039 | 33100 ft | 508 kts | 92° |
| 2026-04-27 00:32 | 40.80710 | 44.61302 | 33111 ft | 508 kts | 92° |
| 2026-04-27 00:33 | 40.80342 | 44.70567 | 33095 ft | 507 kts | 93° |
| 2026-04-27 00:33 | 40.79965 | 44.79844 | 33088 ft | 505 kts | 93° |
| 2026-04-27 00:34 | 40.79583 | 44.89063 | 33085 ft | 505 kts | 94° |
| 2026-04-27 00:34 | 40.79194 | 44.98282 | 33073 ft | 505 kts | 94° |
| 2026-04-27 00:35 | 40.78800 | 45.07427 | 33077 ft | 504 kts | 94° |
| 2026-04-27 00:35 | 40.78397 | 45.16618 | 33080 ft | 504 kts | 94° |
| 2026-04-27 00:36 | 40.77985 | 45.25851 | 33097 ft | 502 kts | 94° |
| 2026-04-27 00:36 | 40.77569 | 45.34993 | 33082 ft | 502 kts | 94° |
| 2026-04-27 00:37 | 40.77146 | 45.44154 | 33077 ft | 501 kts | 94° |
| 2026-04-27 00:37 | 40.76672 | 45.53311 | 33041 ft | 501 kts | 97° |
| 2026-04-27 00:38 | 40.75839 | 45.62347 | 33040 ft | 499 kts | 98° |
| 2026-04-27 00:38 | 40.74989 | 45.71447 | 33052 ft | 498 kts | 99° |
| 2026-04-27 00:39 | 40.74149 | 45.80494 | 33061 ft | 497 kts | 99° |
| 2026-04-27 00:39 | 40.73309 | 45.89535 | 33042 ft | 497 kts | 99° |
| 2026-04-27 00:40 | 40.72475 | 45.98479 | 33028 ft | 494 kts | 99° |
| 2026-04-27 00:40 | 40.71634 | 46.07445 | 32989 ft | 494 kts | 99° |
| 2026-04-27 00:41 | 40.70786 | 46.16427 | 32991 ft | 495 kts | 99° |
| 2026-04-27 00:41 | 40.69935 | 46.25363 | 32974 ft | 494 kts | 99° |
| 2026-04-27 00:42 | 40.69077 | 46.34299 | 32963 ft | 493 kts | 99° |
| 2026-04-27 00:42 | 40.68214 | 46.43221 | 32978 ft | 492 kts | 99° |
| 2026-04-27 00:43 | 40.67344 | 46.52140 | 32992 ft | 493 kts | 99° |
| 2026-04-27 00:43 | 40.66471 | 46.61022 | 32975 ft | 491 kts | 99° |
| 2026-04-27 00:44 | 40.65585 | 46.69953 | 32967 ft | 491 kts | 99° |
| 2026-04-27 00:44 | 40.64694 | 46.78875 | 32952 ft | 490 kts | 99° |
| 2026-04-27 00:45 | 40.63806 | 46.87691 | 32959 ft | 491 kts | 99° |
| 2026-04-27 00:45 | 40.62906 | 46.96562 | 32953 ft | 489 kts | 99° |
| 2026-04-27 00:46 | 40.62004 | 47.05381 | 32956 ft | 489 kts | 99° |
| 2026-04-27 00:46 | 40.61092 | 47.14232 | 32942 ft | 488 kts | 99° |
| 2026-04-27 00:47 | 40.60347 | 47.23058 | 32953 ft | 491 kts | 94° |
| 2026-04-27 00:47 | 40.60172 | 47.31995 | 32949 ft | 490 kts | 93° |
| 2026-04-27 00:48 | 40.59971 | 47.40894 | 32947 ft | 489 kts | 93° |
| 2026-04-27 00:48 | 40.59737 | 47.49810 | 32949 ft | 490 kts | 94° |
| 2026-04-27 00:49 | 40.59483 | 47.58714 | 32947 ft | 489 kts | 94° |
| 2026-04-27 00:49 | 40.59215 | 47.67637 | 32950 ft | 489 kts | 94° |
| 2026-04-27 00:50 | 40.58794 | 47.80972 | 32939 ft | 486 kts | 95° |
| 2026-04-27 00:51 | 40.58505 | 47.89834 | 32933 ft | 487 kts | 95° |
| 2026-04-27 00:51 | 40.58752 | 47.98690 | 32957 ft | 489 kts | 83° |
| 2026-04-27 00:52 | 40.59793 | 48.07487 | 32939 ft | 491 kts | 83° |
| 2026-04-27 00:52 | 40.60844 | 48.16329 | 32943 ft | 490 kts | 83° |
| 2026-04-27 00:53 | 40.61890 | 48.25202 | 32913 ft | 491 kts | 83° |
| 2026-04-27 00:53 | 40.62921 | 48.34024 | 32928 ft | 491 kts | 83° |
| 2026-04-27 00:54 | 40.63945 | 48.42860 | 32937 ft | 490 kts | 83° |
| 2026-04-27 00:54 | 40.64964 | 48.51717 | 32948 ft | 490 kts | 83° |
| 2026-04-27 00:55 | 40.65972 | 48.60551 | 32950 ft | 490 kts | 83° |
| 2026-04-27 00:55 | 40.66976 | 48.69404 | 32939 ft | 489 kts | 84° |
| 2026-04-27 00:56 | 40.67975 | 48.78286 | 32937 ft | 489 kts | 84° |
| 2026-04-27 00:56 | 40.68959 | 48.87087 | 32934 ft | 488 kts | 84° |
| 2026-04-27 00:57 | 40.69938 | 48.95923 | 32953 ft | 491 kts | 84° |
| 2026-04-27 00:57 | 40.70913 | 49.04765 | 32914 ft | 489 kts | 83° |
| 2026-04-27 00:58 | 40.71883 | 49.13637 | 32883 ft | 491 kts | 84° |
| 2026-04-27 00:58 | 40.72723 | 49.22541 | 32858 ft | 488 kts | 90° |
| 2026-04-27 00:59 | 40.72150 | 49.31361 | 32861 ft | 486 kts | 101° |
| 2026-04-27 00:59 | 40.71131 | 49.40129 | 32852 ft | 485 kts | 101° |
| 2026-04-27 01:00 | 40.70095 | 49.48892 | 32858 ft | 486 kts | 101° |
| 2026-04-27 01:00 | 40.69050 | 49.57625 | 32874 ft | 486 kts | 101° |
| 2026-04-27 01:01 | 40.67990 | 49.66393 | 32878 ft | 487 kts | 102° |
| 2026-04-27 01:01 | 40.66924 | 49.75153 | 32860 ft | 486 kts | 102° |
| 2026-04-27 01:02 | 40.65844 | 49.83958 | 32885 ft | 488 kts | 102° |
| 2026-04-27 01:02 | 40.64758 | 49.92754 | 32870 ft | 488 kts | 102° |
| 2026-04-27 01:03 | 40.63668 | 50.01525 | 32869 ft | 488 kts | 102° |
| 2026-04-27 01:03 | 40.62571 | 50.10300 | 32885 ft | 488 kts | 102° |
| 2026-04-27 01:04 | 40.61466 | 50.19073 | 32886 ft | 489 kts | 102° |
| 2026-04-27 01:04 | 40.60354 | 50.27856 | 32902 ft | 487 kts | 102° |
| 2026-04-27 01:05 | 40.59241 | 50.36588 | 32903 ft | 488 kts | 102° |
| 2026-04-27 01:05 | 40.58118 | 50.45338 | 32913 ft | 487 kts | 102° |
| 2026-04-27 01:06 | 40.56984 | 50.54127 | 32909 ft | 488 kts | 102° |
| 2026-04-27 01:06 | 40.55845 | 50.62891 | 32925 ft | 488 kts | 102° |
| 2026-04-27 01:07 | 40.54704 | 50.71630 | 32929 ft | 487 kts | 103° |
| 2026-04-27 01:07 | 40.53551 | 50.80397 | 32931 ft | 488 kts | 103° |
| 2026-04-27 01:08 | 40.52390 | 50.89172 | 32932 ft | 490 kts | 103° |
| 2026-04-27 01:08 | 40.51384 | 50.98001 | 32949 ft | 490 kts | 99° |
| 2026-04-27 01:09 | 40.50619 | 51.06833 | 32947 ft | 489 kts | 99° |
| 2026-04-27 01:09 | 40.49835 | 51.15655 | 32932 ft | 490 kts | 99° |
| 2026-04-27 01:10 | 40.49030 | 51.24513 | 32937 ft | 490 kts | 99° |
| 2026-04-27 01:10 | 40.48211 | 51.33379 | 32932 ft | 490 kts | 99° |
| 2026-04-27 01:11 | 40.47383 | 51.42245 | 32941 ft | 491 kts | 99° |
| 2026-04-27 01:11 | 40.46428 | 51.51098 | 32931 ft | 488 kts | 104° |
| 2026-04-27 01:12 | 40.44876 | 51.59751 | 32937 ft | 489 kts | 106° |
| 2026-04-27 01:12 | 40.43288 | 51.68412 | 32921 ft | 489 kts | 107° |
| 2026-04-27 01:13 | 40.41700 | 51.77043 | 32927 ft | 489 kts | 107° |
| 2026-04-27 01:13 | 40.40099 | 51.85710 | 32929 ft | 490 kts | 107° |
| 2026-04-27 01:14 | 40.38496 | 51.94355 | 32935 ft | 490 kts | 107° |
| 2026-04-27 01:14 | 40.36887 | 52.02993 | 32937 ft | 491 kts | 107° |
| 2026-04-27 01:15 | 40.35268 | 52.11640 | 32931 ft | 491 kts | 107° |
| 2026-04-27 01:15 | 40.33638 | 52.20313 | 32932 ft | 491 kts | 107° |
| 2026-04-27 01:16 | 40.32003 | 52.28973 | 32936 ft | 492 kts | 106° |
| 2026-04-27 01:16 | 40.30363 | 52.37624 | 32935 ft | 491 kts | 106° |
| 2026-04-27 01:17 | 40.28717 | 52.46265 | 32932 ft | 491 kts | 107° |
| 2026-04-27 01:17 | 40.27066 | 52.54900 | 32933 ft | 492 kts | 107° |
| 2026-04-27 01:18 | 40.25399 | 52.63583 | 32937 ft | 491 kts | 106° |
| 2026-04-27 01:18 | 40.23735 | 52.72237 | 32938 ft | 492 kts | 107° |
| 2026-04-27 01:19 | 40.22070 | 52.80860 | 32939 ft | 492 kts | 107° |
| 2026-04-27 01:19 | 40.20385 | 52.89543 | 32936 ft | 493 kts | 107° |
| 2026-04-27 01:20 | 40.18707 | 52.98154 | 32937 ft | 493 kts | 107° |
| 2026-04-27 01:20 | 40.17005 | 53.06851 | 32942 ft | 493 kts | 107° |
| 2026-04-27 01:21 | 40.15310 | 53.15480 | 32941 ft | 493 kts | 107° |
| 2026-04-27 01:21 | 40.13601 | 53.24136 | 32941 ft | 493 kts | 107° |
| 2026-04-27 01:22 | 40.11897 | 53.32733 | 32944 ft | 492 kts | 107° |
| 2026-04-27 01:22 | 40.10177 | 53.41372 | 32937 ft | 492 kts | 107° |
| 2026-04-27 01:23 | 40.08457 | 53.49975 | 32936 ft | 492 kts | 107° |
| 2026-04-27 01:23 | 40.06729 | 53.58586 | 32933 ft | 491 kts | 107° |
| 2026-04-27 01:24 | 40.04991 | 53.67203 | 32933 ft | 492 kts | 108° |
| 2026-04-27 01:24 | 40.03250 | 53.75805 | 32937 ft | 492 kts | 107° |
| 2026-04-27 01:25 | 40.01499 | 53.84417 | 32944 ft | 493 kts | 107° |
| 2026-04-27 01:25 | 39.99747 | 53.93004 | 32954 ft | 492 kts | 108° |
| 2026-04-27 01:26 | 39.97979 | 54.01626 | 32959 ft | 492 kts | 107° |
| 2026-04-27 01:26 | 39.96215 | 54.10199 | 32962 ft | 493 kts | 107° |
| 2026-04-27 01:27 | 39.94443 | 54.18770 | 32967 ft | 492 kts | 107° |
| 2026-04-27 01:27 | 39.92662 | 54.27353 | 32965 ft | 492 kts | 107° |
| 2026-04-27 01:28 | 39.90869 | 54.35960 | 32966 ft | 493 kts | 107° |
| 2026-04-27 01:28 | 39.89071 | 54.44556 | 32975 ft | 494 kts | 107° |
| 2026-04-27 01:29 | 39.87259 | 54.53131 | 32979 ft | 493 kts | 107° |
| 2026-04-27 01:29 | 39.85432 | 54.61729 | 32976 ft | 494 kts | 107° |
| 2026-04-27 01:30 | 39.83609 | 54.70272 | 32968 ft | 493 kts | 107° |
| 2026-04-27 01:30 | 39.81775 | 54.78844 | 32971 ft | 494 kts | 107° |
| 2026-04-27 01:31 | 39.79940 | 54.87445 | 32969 ft | 494 kts | 107° |
| 2026-04-27 01:31 | 39.78104 | 54.96015 | 32967 ft | 495 kts | 107° |
| 2026-04-27 01:32 | 39.76252 | 55.04629 | 32964 ft | 495 kts | 107° |
| 2026-04-27 01:32 | 39.74404 | 55.13187 | 32968 ft | 495 kts | 107° |
| 2026-04-27 01:33 | 39.72542 | 55.21775 | 32976 ft | 495 kts | 107° |
| 2026-04-27 01:33 | 39.70681 | 55.30324 | 32974 ft | 495 kts | 107° |
| 2026-04-27 01:34 | 39.68807 | 55.38899 | 32969 ft | 493 kts | 107° |
| 2026-04-27 01:34 | 39.66936 | 55.47388 | 32969 ft | 493 kts | 107° |
| 2026-04-27 01:35 | 39.65049 | 55.55922 | 32973 ft | 494 kts | 107° |
| 2026-04-27 01:35 | 39.63142 | 55.64513 | 32978 ft | 493 kts | 107° |
| 2026-04-27 01:36 | 39.61250 | 55.73002 | 32971 ft | 492 kts | 108° |
| 2026-04-27 01:36 | 39.59354 | 55.81477 | 32974 ft | 493 kts | 108° |
| 2026-04-27 01:37 | 39.57444 | 55.89989 | 32978 ft | 492 kts | 108° |
| 2026-04-27 01:37 | 39.55539 | 55.98520 | 32975 ft | 493 kts | 108° |
| 2026-04-27 01:38 | 39.53636 | 56.07025 | 32979 ft | 492 kts | 107° |
| 2026-04-27 01:38 | 39.51744 | 56.15450 | 32980 ft | 493 kts | 108° |
| 2026-04-27 01:39 | 39.49819 | 56.23989 | 32975 ft | 492 kts | 108° |
| 2026-04-27 01:39 | 39.47917 | 56.32391 | 32975 ft | 491 kts | 107° |
| 2026-04-27 01:40 | 39.45998 | 56.40837 | 32977 ft | 491 kts | 107° |
| 2026-04-27 01:40 | 39.44072 | 56.49279 | 32972 ft | 491 kts | 107° |
| 2026-04-27 01:41 | 39.42136 | 56.57737 | 32974 ft | 489 kts | 107° |
| 2026-04-27 01:41 | 39.40212 | 56.66110 | 32972 ft | 490 kts | 108° |
| 2026-04-27 01:42 | 39.38264 | 56.74558 | 32967 ft | 489 kts | 108° |
| 2026-04-27 01:42 | 39.36310 | 56.82936 | 32970 ft | 488 kts | 109° |
| 2026-04-27 01:43 | 39.34176 | 56.91246 | 32979 ft | 488 kts | 110° |
| 2026-04-27 01:43 | 39.32029 | 56.99561 | 32985 ft | 488 kts | 110° |
| 2026-04-27 01:44 | 39.29895 | 57.07818 | 32981 ft | 487 kts | 109° |
| 2026-04-27 01:44 | 39.27760 | 57.16067 | 32986 ft | 487 kts | 109° |
| 2026-04-27 01:45 | 39.25613 | 57.24341 | 32991 ft | 487 kts | 109° |
| 2026-04-27 01:45 | 39.23461 | 57.32611 | 32987 ft | 487 kts | 109° |
| 2026-04-27 01:46 | 39.21308 | 57.40857 | 32985 ft | 486 kts | 109° |
| 2026-04-27 01:46 | 39.19150 | 57.49097 | 32995 ft | 487 kts | 109° |
| 2026-04-27 01:47 | 39.16993 | 57.57308 | 32995 ft | 485 kts | 109° |
| 2026-04-27 01:47 | 39.14825 | 57.65533 | 32991 ft | 487 kts | 110° |
| 2026-04-27 01:48 | 39.12643 | 57.73784 | 32990 ft | 485 kts | 110° |
| 2026-04-27 01:48 | 39.10466 | 57.81987 | 32994 ft | 487 kts | 110° |
| 2026-04-27 01:49 | 39.08277 | 57.90211 | 33000 ft | 485 kts | 110° |
| 2026-04-27 01:49 | 39.06105 | 57.98346 | 32991 ft | 486 kts | 110° |
| 2026-04-27 01:50 | 39.03902 | 58.06567 | 32999 ft | 485 kts | 110° |
| 2026-04-27 01:50 | 39.01705 | 58.14740 | 32997 ft | 486 kts | 110° |
| 2026-04-27 01:51 | 38.99498 | 58.22927 | 32999 ft | 485 kts | 110° |
| 2026-04-27 01:51 | 38.97298 | 58.31059 | 32998 ft | 485 kts | 110° |
| 2026-04-27 01:52 | 38.95076 | 58.39249 | 33008 ft | 485 kts | 110° |
| 2026-04-27 01:52 | 38.92869 | 58.47355 | 33009 ft | 484 kts | 110° |
| 2026-04-27 01:53 | 38.90646 | 58.55494 | 33003 ft | 485 kts | 110° |
| 2026-04-27 01:53 | 38.88280 | 58.63600 | 33015 ft | 483 kts | 116° |
| 2026-04-27 01:54 | 38.85302 | 58.71320 | 32994 ft | 482 kts | 118° |
| 2026-04-27 01:54 | 38.82307 | 58.78972 | 33002 ft | 482 kts | 118° |
| 2026-04-27 01:55 | 38.79294 | 58.86647 | 33012 ft | 483 kts | 118° |
| 2026-04-27 01:55 | 38.76288 | 58.94284 | 33009 ft | 483 kts | 118° |
| 2026-04-27 01:56 | 38.71754 | 59.05766 | 33008 ft | 483 kts | 118° |
| 2026-04-27 01:56 | 38.68710 | 59.13449 | 33003 ft | 483 kts | 118° |
| 2026-04-27 01:57 | 38.65684 | 59.21068 | 33011 ft | 483 kts | 118° |
| 2026-04-27 01:57 | 38.62633 | 59.28731 | 33007 ft | 484 kts | 118° |
| 2026-04-27 01:58 | 38.59435 | 59.36197 | 32997 ft | 482 kts | 127° |
| 2026-04-27 01:58 | 38.55119 | 59.42696 | 33005 ft | 479 kts | 134° |
| 2026-04-27 01:59 | 38.50631 | 59.48977 | 33004 ft | 480 kts | 134° |
| 2026-04-27 01:59 | 38.46139 | 59.55245 | 33004 ft | 481 kts | 134° |
| 2026-04-27 02:00 | 38.41639 | 59.61510 | 33003 ft | 480 kts | 134° |
| 2026-04-27 02:00 | 38.37128 | 59.67777 | 33000 ft | 481 kts | 135° |
| 2026-04-27 02:01 | 38.32600 | 59.74056 | 32997 ft | 481 kts | 135° |
| 2026-04-27 02:01 | 38.28080 | 59.80309 | 32993 ft | 482 kts | 135° |
| 2026-04-27 02:02 | 38.23541 | 59.86577 | 32997 ft | 482 kts | 135° |
| 2026-04-27 02:02 | 38.19001 | 59.92833 | 32998 ft | 482 kts | 135° |
| 2026-04-27 02:03 | 38.14446 | 59.99097 | 33001 ft | 483 kts | 135° |
| 2026-04-27 02:03 | 38.09883 | 60.05362 | 33006 ft | 485 kts | 135° |
| 2026-04-27 02:04 | 38.05333 | 60.11595 | 33004 ft | 484 kts | 135° |
| 2026-04-27 02:04 | 38.00753 | 60.17856 | 33003 ft | 485 kts | 135° |
| 2026-04-27 02:05 | 37.96225 | 60.24096 | 33002 ft | 484 kts | 135° |
| 2026-04-27 02:05 | 37.91682 | 60.30362 | 33001 ft | 484 kts | 135° |
| 2026-04-27 02:06 | 37.87120 | 60.36639 | 33007 ft | 486 kts | 135° |
| 2026-04-27 02:06 | 37.82551 | 60.42910 | 33002 ft | 486 kts | 135° |
| 2026-04-27 02:07 | 37.77977 | 60.49178 | 33010 ft | 486 kts | 135° |
| 2026-04-27 02:07 | 37.73359 | 60.55433 | 33004 ft | 486 kts | 137° |
| 2026-04-27 02:08 | 37.68630 | 60.61474 | 33010 ft | 486 kts | 137° |
| 2026-04-27 02:08 | 37.63865 | 60.67549 | 33003 ft | 486 kts | 138° |
| 2026-04-27 02:09 | 37.59116 | 60.73604 | 33002 ft | 485 kts | 138° |
| 2026-04-27 02:09 | 37.54382 | 60.79634 | 33001 ft | 487 kts | 138° |
| 2026-04-27 02:10 | 37.49627 | 60.85682 | 33001 ft | 487 kts | 138° |
| 2026-04-27 02:10 | 37.44839 | 60.91761 | 33004 ft | 488 kts | 138° |
| 2026-04-27 02:11 | 37.40068 | 60.97809 | 33004 ft | 488 kts | 138° |
| 2026-04-27 02:11 | 37.35298 | 61.03845 | 33003 ft | 488 kts | 138° |
| 2026-04-27 02:12 | 37.30533 | 61.09862 | 33000 ft | 488 kts | 138° |
| 2026-04-27 02:12 | 37.25721 | 61.15928 | 33003 ft | 489 kts | 138° |
| 2026-04-27 02:13 | 37.20954 | 61.21925 | 33004 ft | 489 kts | 138° |
| 2026-04-27 02:13 | 37.16142 | 61.27961 | 33004 ft | 490 kts | 138° |
| 2026-04-27 02:14 | 37.11341 | 61.33969 | 33000 ft | 490 kts | 138° |
| 2026-04-27 02:14 | 37.06518 | 61.39994 | 32999 ft | 490 kts | 139° |
| 2026-04-27 02:15 | 37.01688 | 61.46016 | 33004 ft | 491 kts | 139° |
| 2026-04-27 02:15 | 36.96859 | 61.52027 | 33011 ft | 491 kts | 139° |
| 2026-04-27 02:16 | 36.92008 | 61.58052 | 33001 ft | 491 kts | 139° |
| 2026-04-27 02:16 | 36.87274 | 61.63922 | 33011 ft | 492 kts | 139° |
| 2026-04-27 02:17 | 36.82408 | 61.69951 | 33002 ft | 491 kts | 139° |
| 2026-04-27 02:17 | 36.77571 | 61.75931 | 33000 ft | 491 kts | 139° |
| 2026-04-27 02:18 | 36.72713 | 61.81926 | 33006 ft | 491 kts | 139° |
| 2026-04-27 02:18 | 36.67861 | 61.87902 | 33012 ft | 492 kts | 139° |
| 2026-04-27 02:19 | 36.63016 | 61.93859 | 33007 ft | 491 kts | 139° |
| 2026-04-27 02:19 | 36.58153 | 61.99826 | 33007 ft | 491 kts | 140° |
| 2026-04-27 02:20 | 36.53285 | 62.05789 | 33017 ft | 492 kts | 140° |
| 2026-04-27 02:20 | 36.48441 | 62.11710 | 33016 ft | 492 kts | 140° |
| 2026-04-27 02:21 | 36.43568 | 62.17657 | 33015 ft | 492 kts | 140° |
| 2026-04-27 02:21 | 36.38690 | 62.23598 | 33017 ft | 491 kts | 140° |
| 2026-04-27 02:22 | 36.33797 | 62.29546 | 33015 ft | 493 kts | 140° |
| 2026-04-27 02:22 | 36.28939 | 62.35442 | 33016 ft | 491 kts | 140° |
| 2026-04-27 02:23 | 36.24039 | 62.41377 | 33012 ft | 493 kts | 140° |
| 2026-04-27 02:23 | 36.19151 | 62.47286 | 33014 ft | 492 kts | 140° |
| 2026-04-27 02:24 | 36.14264 | 62.53184 | 33011 ft | 493 kts | 140° |
| 2026-04-27 02:24 | 36.09354 | 62.59098 | 33015 ft | 493 kts | 140° |
| 2026-04-27 02:25 | 36.04464 | 62.64978 | 33007 ft | 492 kts | 140° |
| 2026-04-27 02:25 | 35.99529 | 62.70901 | 32994 ft | 493 kts | 141° |
| 2026-04-27 02:26 | 35.94601 | 62.76805 | 32996 ft | 493 kts | 141° |
| 2026-04-27 02:26 | 35.89710 | 62.82654 | 33000 ft | 493 kts | 141° |
| 2026-04-27 02:27 | 35.84757 | 62.88565 | 33006 ft | 493 kts | 141° |
| 2026-04-27 02:27 | 35.79849 | 62.94411 | 33008 ft | 494 kts | 141° |
| 2026-04-27 02:28 | 35.74901 | 63.00297 | 33002 ft | 493 kts | 141° |
| 2026-04-27 02:28 | 35.69967 | 63.06154 | 33007 ft | 493 kts | 141° |
| 2026-04-27 02:29 | 35.65041 | 63.11990 | 33013 ft | 493 kts | 141° |
| 2026-04-27 02:29 | 35.60096 | 63.17839 | 33020 ft | 494 kts | 141° |
| 2026-04-27 02:30 | 35.55581 | 63.24246 | 33034 ft | 501 kts | 133° |
| 2026-04-27 02:30 | 35.51369 | 63.31007 | 33038 ft | 501 kts | 133° |
| 2026-04-27 02:31 | 35.47142 | 63.37771 | 33045 ft | 500 kts | 133° |
| 2026-04-27 02:31 | 35.42905 | 63.44527 | 33052 ft | 500 kts | 133° |
| 2026-04-27 02:32 | 35.38663 | 63.51272 | 33052 ft | 499 kts | 133° |
| 2026-04-27 02:32 | 35.34430 | 63.57985 | 33064 ft | 501 kts | 133° |
| 2026-04-27 02:33 | 35.30178 | 63.64716 | 33071 ft | 500 kts | 133° |
| 2026-04-27 02:33 | 35.25923 | 63.71471 | 33058 ft | 500 kts | 133° |
| 2026-04-27 02:34 | 35.21664 | 63.78230 | 33065 ft | 502 kts | 133° |
| 2026-04-27 02:34 | 35.17410 | 63.84966 | 33091 ft | 501 kts | 133° |
| 2026-04-27 02:35 | 35.13168 | 63.91669 | 33112 ft | 502 kts | 134° |
| 2026-04-27 02:35 | 35.08894 | 63.98411 | 33126 ft | 500 kts | 134° |
| 2026-04-27 02:36 | 35.04611 | 64.05151 | 33134 ft | 503 kts | 134° |
| 2026-04-27 02:36 | 35.00343 | 64.11858 | 33149 ft | 502 kts | 134° |
| 2026-04-27 02:37 | 34.96062 | 64.18571 | 33183 ft | 502 kts | 134° |
| 2026-04-27 02:37 | 34.91804 | 64.25234 | 33218 ft | 501 kts | 134° |
| 2026-04-27 02:38 | 34.87485 | 64.31980 | 33252 ft | 504 kts | 134° |
| 2026-04-27 02:38 | 34.83217 | 64.38637 | 33304 ft | 501 kts | 134° |
| 2026-04-27 02:39 | 34.78925 | 64.45315 | 33310 ft | 502 kts | 134° |
| 2026-04-27 02:39 | 34.74640 | 64.51971 | 33320 ft | 500 kts | 134° |
| 2026-04-27 02:40 | 34.70339 | 64.58639 | 33347 ft | 499 kts | 134° |
| 2026-04-27 02:40 | 34.66064 | 64.65253 | 33365 ft | 501 kts | 134° |
| 2026-04-27 02:41 | 34.61781 | 64.71867 | 33371 ft | 500 kts | 134° |
| 2026-04-27 02:41 | 34.57488 | 64.78487 | 33375 ft | 499 kts | 134° |
| 2026-04-27 02:42 | 34.53191 | 64.85099 | 33379 ft | 497 kts | 135° |
| 2026-04-27 02:42 | 34.48901 | 64.91684 | 33374 ft | 500 kts | 135° |
| 2026-04-27 02:43 | 34.44622 | 64.98230 | 33379 ft | 498 kts | 135° |
| 2026-04-27 02:43 | 34.40310 | 65.04810 | 33385 ft | 497 kts | 135° |
| 2026-04-27 02:44 | 34.36036 | 65.11321 | 33401 ft | 499 kts | 135° |
| 2026-04-27 02:44 | 34.31706 | 65.17906 | 33407 ft | 499 kts | 135° |
| 2026-04-27 02:45 | 34.27393 | 65.24453 | 33405 ft | 499 kts | 135° |
| 2026-04-27 02:45 | 34.23080 | 65.30988 | 33413 ft | 500 kts | 135° |
| 2026-04-27 02:46 | 34.18737 | 65.37558 | 33408 ft | 499 kts | 134° |
| 2026-04-27 02:46 | 34.14403 | 65.44101 | 33408 ft | 499 kts | 134° |
| 2026-04-27 02:47 | 34.10084 | 65.50609 | 33410 ft | 500 kts | 134° |
| 2026-04-27 02:47 | 34.05764 | 65.57111 | 33411 ft | 500 kts | 134° |
| 2026-04-27 02:48 | 34.01416 | 65.63658 | 33407 ft | 499 kts | 134° |
| 2026-04-27 02:48 | 33.97067 | 65.70197 | 33398 ft | 498 kts | 134° |
| 2026-04-27 02:49 | 33.92756 | 65.76666 | 33397 ft | 498 kts | 134° |
| 2026-04-27 02:49 | 33.88404 | 65.83182 | 33399 ft | 500 kts | 134° |
| 2026-04-27 02:50 | 33.84016 | 65.89741 | 33399 ft | 503 kts | 133° |
| 2026-04-27 02:50 | 33.79646 | 65.96263 | 33390 ft | 501 kts | 133° |
| 2026-04-27 02:51 | 33.75275 | 66.02773 | 33393 ft | 503 kts | 133° |
| 2026-04-27 02:51 | 33.70906 | 66.09270 | 33396 ft | 501 kts | 134° |
| 2026-04-27 02:52 | 33.66512 | 66.15791 | 33380 ft | 499 kts | 133° |
| 2026-04-27 02:52 | 33.62163 | 66.22234 | 33382 ft | 501 kts | 133° |
| 2026-04-27 02:53 | 33.57757 | 66.28748 | 33362 ft | 501 kts | 133° |
| 2026-04-27 02:53 | 33.53376 | 66.35216 | 33360 ft | 502 kts | 133° |
| 2026-04-27 02:54 | 33.48978 | 66.41695 | 33372 ft | 502 kts | 133° |
| 2026-04-27 02:54 | 33.44600 | 66.48131 | 33381 ft | 501 kts | 133° |
| 2026-04-27 02:55 | 33.40188 | 66.54578 | 33413 ft | 501 kts | 133° |
| 2026-04-27 02:55 | 33.35769 | 66.61025 | 33410 ft | 499 kts | 133° |
| 2026-04-27 02:56 | 33.31384 | 66.67412 | 33401 ft | 499 kts | 133° |
| 2026-04-27 02:56 | 33.26988 | 66.73803 | 33426 ft | 500 kts | 133° |
| 2026-04-27 02:57 | 33.22585 | 66.80193 | 33428 ft | 498 kts | 133° |
| 2026-04-27 02:57 | 33.18173 | 66.86587 | 33435 ft | 497 kts | 133° |
| 2026-04-27 02:58 | 33.13790 | 66.92926 | 33436 ft | 498 kts | 133° |
| 2026-04-27 02:58 | 33.09372 | 66.99304 | 33455 ft | 499 kts | 133° |
| 2026-04-27 02:59 | 33.04945 | 67.05685 | 33473 ft | 498 kts | 133° |
| 2026-04-27 02:59 | 33.00564 | 67.11990 | 33460 ft | 496 kts | 133° |
| 2026-04-27 03:00 | 32.96179 | 67.18289 | 33445 ft | 495 kts | 133° |
| 2026-04-27 03:00 | 32.91789 | 67.24584 | 33417 ft | 495 kts | 133° |
| 2026-04-27 03:01 | 32.87373 | 67.30905 | 33418 ft | 495 kts | 133° |
| 2026-04-27 03:01 | 32.82981 | 67.37183 | 33397 ft | 496 kts | 133° |
| 2026-04-27 03:02 | 32.78573 | 67.43470 | 33390 ft | 496 kts | 133° |
| 2026-04-27 03:02 | 32.74091 | 67.49657 | 33370 ft | 494 kts | 135° |
| 2026-04-27 03:03 | 32.67262 | 67.58794 | 33361 ft | 493 kts | 135° |
| 2026-04-27 03:04 | 32.62726 | 67.64864 | 33341 ft | 494 kts | 135° |
| 2026-04-27 03:04 | 32.58181 | 67.70942 | 33321 ft | 494 kts | 135° |
| 2026-04-27 03:05 | 32.53637 | 67.77011 | 33320 ft | 493 kts | 136° |
| 2026-04-27 03:05 | 32.49074 | 67.83130 | 33310 ft | 494 kts | 134° |
| 2026-04-27 03:06 | 32.44695 | 67.89443 | 33301 ft | 495 kts | 133° |
| 2026-04-27 03:06 | 32.40353 | 67.95710 | 33296 ft | 498 kts | 133° |
| 2026-04-27 03:07 | 32.35950 | 68.02041 | 33298 ft | 497 kts | 133° |
| 2026-04-27 03:07 | 32.31567 | 68.08323 | 33299 ft | 497 kts | 133° |
| 2026-04-27 03:08 | 32.27170 | 68.14609 | 33310 ft | 500 kts | 133° |
| 2026-04-27 03:08 | 32.22728 | 68.20948 | 33313 ft | 498 kts | 133° |
| 2026-04-27 03:09 | 32.18317 | 68.27230 | 33328 ft | 498 kts | 133° |
| 2026-04-27 03:09 | 32.13888 | 68.33526 | 33321 ft | 497 kts | 133° |
| 2026-04-27 03:10 | 32.09488 | 68.39770 | 33326 ft | 499 kts | 133° |
| 2026-04-27 03:10 | 32.05052 | 68.46053 | 33320 ft | 499 kts | 133° |
| 2026-04-27 03:11 | 32.00614 | 68.52331 | 33306 ft | 498 kts | 133° |
| 2026-04-27 03:11 | 31.96176 | 68.58597 | 33289 ft | 499 kts | 134° |
| 2026-04-27 03:12 | 31.91758 | 68.64825 | 33282 ft | 498 kts | 134° |
| 2026-04-27 03:12 | 31.87288 | 68.71115 | 33259 ft | 497 kts | 134° |
| 2026-04-27 03:13 | 31.82846 | 68.77356 | 33263 ft | 498 kts | 134° |
| 2026-04-27 03:13 | 31.78438 | 68.83540 | 33245 ft | 495 kts | 134° |
| 2026-04-27 03:14 | 31.74012 | 68.89736 | 33240 ft | 496 kts | 134° |
| 2026-04-27 03:14 | 31.69569 | 68.95949 | 33228 ft | 495 kts | 134° |
| 2026-04-27 03:15 | 31.65185 | 69.02121 | 33229 ft | 495 kts | 133° |
| 2026-04-27 03:15 | 31.60920 | 69.08487 | 33243 ft | 495 kts | 132° |
| 2026-04-27 03:16 | 31.56664 | 69.14831 | 33225 ft | 495 kts | 132° |
| 2026-04-27 03:16 | 31.52425 | 69.21127 | 33211 ft | 496 kts | 132° |
| 2026-04-27 03:17 | 31.48139 | 69.27477 | 33177 ft | 497 kts | 132° |
| 2026-04-27 03:17 | 31.43858 | 69.33806 | 33160 ft | 497 kts | 132° |
| 2026-04-27 03:18 | 31.39517 | 69.40031 | 33146 ft | 492 kts | 138° |
| 2026-04-27 03:18 | 31.34215 | 69.44907 | 33157 ft | 482 kts | 155° |
| 2026-04-27 03:19 | 31.28074 | 69.47781 | 33179 ft | 470 kts | 171° |
| 2026-04-27 03:19 | 31.21687 | 69.49437 | 33197 ft | 469 kts | 172° |
| 2026-04-27 03:20 | 31.15338 | 69.51033 | 33197 ft | 468 kts | 172° |
| 2026-04-27 03:20 | 31.08981 | 69.52621 | 33187 ft | 469 kts | 172° |
| 2026-04-27 03:21 | 31.02584 | 69.54215 | 33186 ft | 468 kts | 172° |
| 2026-04-27 03:21 | 30.96250 | 69.55789 | 33184 ft | 469 kts | 172° |
| 2026-04-27 03:22 | 30.89869 | 69.57372 | 33175 ft | 469 kts | 172° |
| 2026-04-27 03:22 | 30.83450 | 69.58961 | 33176 ft | 469 kts | 172° |
| 2026-04-27 03:23 | 30.77095 | 69.60533 | 33175 ft | 469 kts | 172° |
| 2026-04-27 03:23 | 30.70675 | 69.62118 | 33168 ft | 469 kts | 172° |
| 2026-04-27 03:24 | 30.64299 | 69.63690 | 33157 ft | 470 kts | 172° |
| 2026-04-27 03:24 | 30.57883 | 69.65270 | 33144 ft | 470 kts | 173° |
| 2026-04-27 03:25 | 30.51484 | 69.66843 | 33125 ft | 471 kts | 173° |
| 2026-04-27 03:25 | 30.45064 | 69.68420 | 33122 ft | 470 kts | 173° |
| 2026-04-27 03:26 | 30.38706 | 69.69980 | 33121 ft | 469 kts | 172° |
| 2026-04-27 03:26 | 30.32288 | 69.71551 | 33113 ft | 472 kts | 172° |
| 2026-04-27 03:27 | 30.25850 | 69.73126 | 33114 ft | 471 kts | 173° |
| 2026-04-27 03:27 | 30.19418 | 69.74904 | 33446 ft | 479 kts | 170° |
| 2026-04-27 03:27 | 30.16192 | 69.75861 | 34011 ft | 475 kts | 170° |
| 2026-04-27 03:28 | 30.13024 | 69.76797 | 34480 ft | 473 kts | 170° |
| 2026-04-27 03:28 | 30.09826 | 69.77737 | 34790 ft | 474 kts | 170° |
| 2026-04-27 03:28 | 30.06605 | 69.78680 | 35042 ft | 476 kts | 170° |
| 2026-04-27 03:29 | 30.00168 | 69.80560 | 35079 ft | 477 kts | 170° |
| 2026-04-27 03:29 | 29.93765 | 69.82426 | 35051 ft | 475 kts | 170° |
| 2026-04-27 03:30 | 29.87336 | 69.84292 | 35022 ft | 476 kts | 170° |
| 2026-04-27 03:30 | 29.80881 | 69.86163 | 34992 ft | 476 kts | 170° |
| 2026-04-27 03:31 | 29.74469 | 69.88019 | 34951 ft | 478 kts | 170° |
| 2026-04-27 03:31 | 29.68030 | 69.89880 | 34917 ft | 476 kts | 170° |
| 2026-04-27 03:32 | 29.61588 | 69.91738 | 34882 ft | 478 kts | 170° |
| 2026-04-27 03:32 | 29.55150 | 69.93594 | 34840 ft | 477 kts | 170° |
| 2026-04-27 03:33 | 29.48679 | 69.95457 | 34829 ft | 477 kts | 170° |
| 2026-04-27 03:33 | 29.42265 | 69.97300 | 34807 ft | 478 kts | 170° |
| 2026-04-27 03:34 | 29.35815 | 69.99152 | 34775 ft | 478 kts | 170° |
| 2026-04-27 03:34 | 29.29371 | 70.00999 | 34772 ft | 476 kts | 170° |
| 2026-04-27 03:35 | 29.22894 | 70.02853 | 34743 ft | 479 kts | 170° |
| 2026-04-27 03:35 | 29.16465 | 70.04691 | 34718 ft | 479 kts | 170° |
| 2026-04-27 03:36 | 29.09982 | 70.06542 | 34706 ft | 480 kts | 170° |
| 2026-04-27 03:36 | 29.03480 | 70.08396 | 34687 ft | 480 kts | 170° |
| 2026-04-27 03:37 | 28.96971 | 70.10250 | 34667 ft | 481 kts | 170° |
| 2026-04-27 03:37 | 28.90473 | 70.12099 | 34668 ft | 480 kts | 170° |
| 2026-04-27 03:38 | 28.83993 | 70.13940 | 34664 ft | 480 kts | 170° |
| 2026-04-27 03:38 | 28.77517 | 70.15777 | 34663 ft | 480 kts | 169° |
| 2026-04-27 03:39 | 28.71011 | 70.17620 | 34663 ft | 481 kts | 169° |
| 2026-04-27 03:39 | 28.64551 | 70.19448 | 34667 ft | 481 kts | 169° |
| 2026-04-27 03:40 | 28.58026 | 70.21293 | 34666 ft | 480 kts | 170° |
| 2026-04-27 03:40 | 28.51551 | 70.23120 | 34667 ft | 481 kts | 169° |
| 2026-04-27 03:41 | 28.45064 | 70.25022 | 34666 ft | 483 kts | 165° |
| 2026-04-27 03:41 | 28.39023 | 70.28524 | 34676 ft | 493 kts | 146° |
| 2026-04-27 03:42 | 28.34144 | 70.34030 | 34678 ft | 501 kts | 127° |
| 2026-04-27 03:42 | 28.30777 | 70.40947 | 34683 ft | 505 kts | 117° |
| 2026-04-27 03:43 | 28.27753 | 70.48123 | 34680 ft | 504 kts | 117° |
| 2026-04-27 03:43 | 28.24741 | 70.55227 | 34679 ft | 504 kts | 117° |
| 2026-04-27 03:44 | 28.21697 | 70.62369 | 34677 ft | 504 kts | 117° |
| 2026-04-27 03:44 | 28.18626 | 70.69550 | 34666 ft | 504 kts | 117° |
| 2026-04-27 03:45 | 28.15585 | 70.76643 | 34663 ft | 503 kts | 117° |
| 2026-04-27 03:45 | 28.12520 | 70.83774 | 34663 ft | 504 kts | 117° |
| 2026-04-27 03:46 | 28.09443 | 70.90918 | 34667 ft | 504 kts | 117° |
| 2026-04-27 03:46 | 28.06385 | 70.98005 | 34664 ft | 504 kts | 117° |
| 2026-04-27 03:47 | 28.03297 | 71.05146 | 34667 ft | 506 kts | 117° |
| 2026-04-27 03:47 | 28.00213 | 71.12267 | 34672 ft | 504 kts | 117° |
| 2026-04-27 03:48 | 27.97143 | 71.19344 | 34682 ft | 503 kts | 117° |
| 2026-04-27 03:48 | 27.94046 | 71.26470 | 34680 ft | 503 kts | 117° |
| 2026-04-27 03:49 | 27.90974 | 71.33525 | 34694 ft | 502 kts | 117° |
| 2026-04-27 03:49 | 27.87894 | 71.40588 | 34693 ft | 502 kts | 117° |
| 2026-04-27 03:50 | 27.84748 | 71.47594 | 34697 ft | 502 kts | 118° |
| 2026-04-27 03:50 | 27.81504 | 71.54617 | 34698 ft | 501 kts | 118° |
| 2026-04-27 03:51 | 27.78302 | 71.61549 | 34704 ft | 501 kts | 118° |
| 2026-04-27 03:51 | 27.75080 | 71.68519 | 34696 ft | 501 kts | 119° |
| 2026-04-27 03:52 | 27.71852 | 71.75496 | 34690 ft | 501 kts | 119° |
| 2026-04-27 03:52 | 27.68641 | 71.82427 | 34694 ft | 500 kts | 119° |
| 2026-04-27 03:53 | 27.65432 | 71.89341 | 34688 ft | 500 kts | 119° |
| 2026-04-27 03:53 | 27.62214 | 71.96265 | 34702 ft | 499 kts | 119° |
| 2026-04-27 03:54 | 27.58993 | 72.03186 | 34710 ft | 499 kts | 119° |
| 2026-04-27 03:54 | 27.55761 | 72.10118 | 34716 ft | 499 kts | 118° |
| 2026-04-27 03:55 | 27.52526 | 72.17045 | 34710 ft | 500 kts | 118° |
| 2026-04-27 03:55 | 27.49302 | 72.23938 | 34720 ft | 500 kts | 118° |
| 2026-04-27 03:56 | 27.46070 | 72.30836 | 34739 ft | 500 kts | 118° |
| 2026-04-27 03:56 | 27.42817 | 72.37767 | 34736 ft | 499 kts | 118° |
| 2026-04-27 03:57 | 27.39586 | 72.44641 | 34735 ft | 499 kts | 118° |
| 2026-04-27 03:57 | 27.36318 | 72.51582 | 34734 ft | 499 kts | 118° |
| 2026-04-27 03:58 | 27.33075 | 72.58459 | 34745 ft | 499 kts | 118° |
| 2026-04-27 03:58 | 27.29818 | 72.65353 | 34743 ft | 501 kts | 118° |
| 2026-04-27 03:59 | 27.26564 | 72.72231 | 34740 ft | 500 kts | 118° |
| 2026-04-27 03:59 | 27.23292 | 72.79136 | 34747 ft | 500 kts | 118° |
| 2026-04-27 04:00 | 27.20034 | 72.85998 | 34756 ft | 500 kts | 118° |
| 2026-04-27 04:00 | 27.16768 | 72.92869 | 34767 ft | 500 kts | 118° |
| 2026-04-27 04:01 | 27.13500 | 72.99731 | 34769 ft | 500 kts | 118° |
| 2026-04-27 04:01 | 27.10233 | 73.06581 | 34766 ft | 499 kts | 118° |
| 2026-04-27 04:02 | 27.06968 | 73.13414 | 34771 ft | 498 kts | 118° |
| 2026-04-27 04:02 | 27.03705 | 73.20235 | 34774 ft | 498 kts | 118° |
| 2026-04-27 04:03 | 27.00426 | 73.27077 | 34778 ft | 497 kts | 118° |
| 2026-04-27 04:03 | 26.97164 | 73.33872 | 34781 ft | 497 kts | 118° |
| 2026-04-27 04:04 | 26.93868 | 73.40685 | 34784 ft | 497 kts | 119° |
| 2026-04-27 04:04 | 26.90540 | 73.47485 | 34793 ft | 497 kts | 119° |
| 2026-04-27 04:05 | 26.87232 | 73.54239 | 34793 ft | 497 kts | 119° |
| 2026-04-27 04:05 | 26.83898 | 73.61035 | 34800 ft | 497 kts | 118° |
| 2026-04-27 04:06 | 26.80582 | 73.67786 | 34801 ft | 497 kts | 119° |
| 2026-04-27 04:06 | 26.77242 | 73.74577 | 34803 ft | 496 kts | 119° |
| 2026-04-27 04:07 | 26.72271 | 73.84664 | 34805 ft | 495 kts | 119° |
| 2026-04-27 04:07 | 26.68953 | 73.91383 | 34800 ft | 495 kts | 119° |
| 2026-04-27 04:08 | 26.65627 | 73.98109 | 34802 ft | 495 kts | 119° |
| 2026-04-27 04:08 | 26.62293 | 74.04841 | 34799 ft | 496 kts | 119° |
| 2026-04-27 04:09 | 26.58977 | 74.11526 | 34792 ft | 495 kts | 119° |
| 2026-04-27 04:09 | 26.55643 | 74.18240 | 34798 ft | 495 kts | 119° |
| 2026-04-27 04:10 | 26.52332 | 74.24987 | 34796 ft | 495 kts | 118° |
| 2026-04-27 04:10 | 26.49043 | 74.31718 | 34804 ft | 496 kts | 118° |
| 2026-04-27 04:11 | 26.45735 | 74.38477 | 34813 ft | 495 kts | 118° |
| 2026-04-27 04:11 | 26.42450 | 74.45173 | 34821 ft | 496 kts | 118° |
| 2026-04-27 04:12 | 26.39147 | 74.51894 | 34832 ft | 495 kts | 118° |
| 2026-04-27 04:12 | 26.35850 | 74.58595 | 34835 ft | 494 kts | 118° |
| 2026-04-27 04:13 | 26.32532 | 74.65326 | 34833 ft | 494 kts | 119° |
| 2026-04-27 04:13 | 26.29239 | 74.71995 | 34825 ft | 494 kts | 119° |
| 2026-04-27 04:14 | 26.25935 | 74.78678 | 34825 ft | 493 kts | 119° |
| 2026-04-27 04:14 | 26.22621 | 74.85371 | 34822 ft | 493 kts | 119° |
| 2026-04-27 04:15 | 26.19309 | 74.92048 | 34820 ft | 494 kts | 119° |
| 2026-04-27 04:15 | 26.15790 | 74.98593 | 34824 ft | 492 kts | 124° |
| 2026-04-27 04:16 | 26.11977 | 75.04876 | 34814 ft | 492 kts | 124° |
| 2026-04-27 04:16 | 26.08130 | 75.11199 | 34812 ft | 492 kts | 124° |
| 2026-04-27 04:17 | 26.04303 | 75.17485 | 34807 ft | 491 kts | 124° |
| 2026-04-27 04:17 | 26.00493 | 75.23737 | 34808 ft | 490 kts | 124° |
| 2026-04-27 04:18 | 25.96668 | 75.30005 | 34806 ft | 491 kts | 124° |
| 2026-04-27 04:18 | 25.92857 | 75.36243 | 34800 ft | 491 kts | 124° |
| 2026-04-27 04:19 | 25.89002 | 75.42545 | 34794 ft | 491 kts | 124° |
| 2026-04-27 04:19 | 25.85033 | 75.48668 | 34795 ft | 490 kts | 128° |
| 2026-04-27 04:20 | 25.80916 | 75.54674 | 34798 ft | 490 kts | 128° |
| 2026-04-27 04:20 | 25.76792 | 75.60707 | 34795 ft | 490 kts | 128° |
| 2026-04-27 04:21 | 25.72687 | 75.66718 | 34791 ft | 490 kts | 128° |
| 2026-04-27 04:21 | 25.68551 | 75.72777 | 34794 ft | 489 kts | 128° |
| 2026-04-27 04:22 | 25.64462 | 75.78764 | 34806 ft | 490 kts | 128° |
| 2026-04-27 04:22 | 25.60350 | 75.84777 | 34802 ft | 490 kts | 128° |
| 2026-04-27 04:23 | 25.56233 | 75.90793 | 34795 ft | 490 kts | 128° |
| 2026-04-27 04:23 | 25.52110 | 75.96809 | 34784 ft | 490 kts | 128° |
| 2026-04-27 04:24 | 25.48014 | 76.02780 | 34772 ft | 490 kts | 128° |
| 2026-04-27 04:24 | 25.43884 | 76.08793 | 34772 ft | 490 kts | 128° |
| 2026-04-27 04:25 | 25.39786 | 76.14751 | 34771 ft | 490 kts | 128° |
| 2026-04-27 04:25 | 25.35632 | 76.20782 | 34778 ft | 491 kts | 128° |
| 2026-04-27 04:26 | 25.31512 | 76.26757 | 34779 ft | 491 kts | 128° |
| 2026-04-27 04:26 | 25.27369 | 76.32759 | 34777 ft | 491 kts | 128° |
| 2026-04-27 04:27 | 25.23232 | 76.38743 | 34781 ft | 492 kts | 128° |
| 2026-04-27 04:27 | 25.19106 | 76.44705 | 34790 ft | 491 kts | 128° |
| 2026-04-27 04:28 | 25.14953 | 76.50697 | 34796 ft | 492 kts | 128° |
| 2026-04-27 04:28 | 25.10806 | 76.56673 | 34799 ft | 492 kts | 128° |
| 2026-04-27 04:29 | 25.06667 | 76.62631 | 34798 ft | 491 kts | 128° |
| 2026-04-27 04:29 | 25.02485 | 76.68643 | 34805 ft | 491 kts | 129° |
| 2026-04-27 04:30 | 24.98118 | 76.74352 | 34818 ft | 490 kts | 135° |
| 2026-04-27 04:30 | 24.93401 | 76.79813 | 34811 ft | 490 kts | 135° |
| 2026-04-27 04:31 | 24.88708 | 76.85235 | 34821 ft | 490 kts | 135° |
| 2026-04-27 04:31 | 24.84006 | 76.90661 | 34822 ft | 490 kts | 135° |
| 2026-04-27 04:32 | 24.79285 | 76.96104 | 34818 ft | 490 kts | 135° |
| 2026-04-27 04:32 | 24.74561 | 77.01545 | 34832 ft | 491 kts | 135° |
| 2026-04-27 04:33 | 24.69856 | 77.06958 | 34824 ft | 491 kts | 135° |
| 2026-04-27 04:33 | 24.65160 | 77.12355 | 34839 ft | 493 kts | 135° |
| 2026-04-27 04:34 | 24.60422 | 77.17793 | 34838 ft | 491 kts | 135° |
| 2026-04-27 04:34 | 24.55683 | 77.23227 | 34845 ft | 491 kts | 135° |
| 2026-04-27 04:35 | 24.50963 | 77.28632 | 34855 ft | 490 kts | 135° |
| 2026-04-27 04:35 | 24.46245 | 77.34029 | 34852 ft | 492 kts | 135° |
| 2026-04-27 04:36 | 24.41519 | 77.39428 | 34855 ft | 491 kts | 135° |
| 2026-04-27 04:36 | 24.36777 | 77.44840 | 34856 ft | 492 kts | 135° |
| 2026-04-27 04:37 | 24.32033 | 77.50248 | 34858 ft | 491 kts | 135° |
| 2026-04-27 04:37 | 24.27298 | 77.55639 | 34859 ft | 492 kts | 135° |
| 2026-04-27 04:38 | 24.22563 | 77.61025 | 34855 ft | 491 kts | 136° |
| 2026-04-27 04:38 | 24.17807 | 77.66427 | 34854 ft | 491 kts | 136° |
| 2026-04-27 04:39 | 24.13075 | 77.71796 | 34851 ft | 491 kts | 136° |
| 2026-04-27 04:39 | 24.08334 | 77.77170 | 34843 ft | 492 kts | 136° |
| 2026-04-27 04:40 | 24.03564 | 77.82570 | 34841 ft | 492 kts | 136° |
| 2026-04-27 04:40 | 23.98826 | 77.87928 | 34836 ft | 492 kts | 136° |
| 2026-04-27 04:41 | 23.94042 | 77.93331 | 34843 ft | 493 kts | 136° |
| 2026-04-27 04:41 | 23.89274 | 77.98711 | 34828 ft | 495 kts | 136° |
| 2026-04-27 04:42 | 23.84501 | 78.04090 | 34828 ft | 496 kts | 137° |
| 2026-04-27 04:42 | 23.79697 | 78.09498 | 34831 ft | 495 kts | 137° |
| 2026-04-27 04:43 | 23.74884 | 78.14910 | 34842 ft | 497 kts | 137° |
| 2026-04-27 04:43 | 23.70060 | 78.20328 | 34840 ft | 499 kts | 137° |
| 2026-04-27 04:44 | 23.65207 | 78.25772 | 34851 ft | 501 kts | 137° |
| 2026-04-27 04:44 | 23.60361 | 78.31203 | 34857 ft | 501 kts | 137° |
| 2026-04-27 04:45 | 23.55479 | 78.36668 | 34866 ft | 503 kts | 138° |
| 2026-04-27 04:45 | 23.50598 | 78.42127 | 34880 ft | 502 kts | 138° |
| 2026-04-27 04:46 | 23.45722 | 78.47572 | 34868 ft | 503 kts | 138° |
| 2026-04-27 04:46 | 23.40832 | 78.53026 | 34862 ft | 506 kts | 138° |
| 2026-04-27 04:47 | 23.35925 | 78.58495 | 34860 ft | 507 kts | 138° |
| 2026-04-27 04:47 | 23.30983 | 78.63995 | 34851 ft | 506 kts | 139° |
| 2026-04-27 04:48 | 23.26069 | 78.69458 | 34834 ft | 508 kts | 139° |
| 2026-04-27 04:48 | 23.21073 | 78.74997 | 34823 ft | 512 kts | 140° |
| 2026-04-27 04:49 | 23.16024 | 78.80387 | 34810 ft | 512 kts | 141° |
| 2026-04-27 04:49 | 23.10916 | 78.85816 | 34806 ft | 513 kts | 141° |
| 2026-04-27 04:50 | 23.05834 | 78.91219 | 34807 ft | 514 kts | 141° |
| 2026-04-27 04:50 | 23.00727 | 78.96647 | 34809 ft | 516 kts | 141° |
| 2026-04-27 04:51 | 22.95609 | 79.02081 | 34823 ft | 516 kts | 142° |
| 2026-04-27 04:51 | 22.90494 | 79.07508 | 34832 ft | 516 kts | 141° |
| 2026-04-27 04:52 | 22.85351 | 79.12958 | 34845 ft | 517 kts | 142° |
| 2026-04-27 04:52 | 22.80206 | 79.18407 | 34859 ft | 517 kts | 142° |
| 2026-04-27 04:53 | 22.75044 | 79.23865 | 34863 ft | 518 kts | 142° |
| 2026-04-27 04:53 | 22.69887 | 79.29313 | 34874 ft | 519 kts | 142° |
| 2026-04-27 04:54 | 22.64720 | 79.34766 | 34891 ft | 519 kts | 142° |
| 2026-04-27 04:54 | 22.59571 | 79.40193 | 34901 ft | 521 kts | 141° |
| 2026-04-27 04:55 | 22.54397 | 79.45702 | 34901 ft | 521 kts | 140° |
| 2026-04-27 04:55 | 22.49368 | 79.51266 | 34904 ft | 522 kts | 140° |
| 2026-04-27 04:56 | 22.44283 | 79.56883 | 34898 ft | 522 kts | 140° |
| 2026-04-27 04:56 | 22.39226 | 79.62456 | 34895 ft | 522 kts | 140° |
| 2026-04-27 04:57 | 22.34107 | 79.68085 | 34876 ft | 520 kts | 141° |
| 2026-04-27 04:57 | 22.29053 | 79.73635 | 34870 ft | 521 kts | 141° |
| 2026-04-27 04:58 | 22.23935 | 79.79246 | 34865 ft | 526 kts | 141° |
| 2026-04-27 04:58 | 22.18838 | 79.84831 | 34858 ft | 522 kts | 141° |
| 2026-04-27 04:59 | 22.13718 | 79.90433 | 34849 ft | 523 kts | 141° |
| 2026-04-27 04:59 | 22.08627 | 79.95996 | 34836 ft | 524 kts | 141° |
| 2026-04-27 05:00 | 22.03505 | 80.01587 | 34819 ft | 523 kts | 141° |
| 2026-04-27 05:00 | 21.98419 | 80.07132 | 34832 ft | 524 kts | 141° |
| 2026-04-27 05:01 | 21.93312 | 80.12695 | 34839 ft | 522 kts | 141° |
| 2026-04-27 05:01 | 21.88166 | 80.18293 | 34845 ft | 525 kts | 141° |
| 2026-04-27 05:02 | 21.83048 | 80.23856 | 34841 ft | 524 kts | 140° |
| 2026-04-27 05:03 | 21.75350 | 80.32212 | 34833 ft | 523 kts | 141° |
| 2026-04-27 05:03 | 21.70256 | 80.37734 | 34837 ft | 523 kts | 140° |
| 2026-04-27 05:04 | 21.65109 | 80.43306 | 34845 ft | 523 kts | 141° |
| 2026-04-27 05:04 | 21.60000 | 80.48831 | 34843 ft | 523 kts | 140° |
| 2026-04-27 05:05 | 21.54871 | 80.54373 | 34842 ft | 523 kts | 140° |
| 2026-04-27 05:05 | 21.49739 | 80.59914 | 34860 ft | 522 kts | 140° |
| 2026-04-27 05:06 | 21.44674 | 80.65497 | 34872 ft | 522 kts | 140° |
| 2026-04-27 05:06 | 21.39601 | 80.71103 | 34870 ft | 523 kts | 140° |
| 2026-04-27 05:07 | 21.34528 | 80.76698 | 34871 ft | 523 kts | 140° |
| 2026-04-27 05:07 | 21.29447 | 80.82292 | 34843 ft | 522 kts | 140° |
| 2026-04-27 05:08 | 21.24381 | 80.87861 | 34822 ft | 523 kts | 140° |
| 2026-04-27 05:08 | 21.19303 | 80.93436 | 34816 ft | 523 kts | 140° |
| 2026-04-27 05:09 | 21.14242 | 80.98988 | 34818 ft | 522 kts | 140° |
| 2026-04-27 05:09 | 21.09139 | 81.04579 | 34815 ft | 521 kts | 140° |
| 2026-04-27 05:10 | 21.04093 | 81.10102 | 34813 ft | 522 kts | 140° |
| 2026-04-27 05:10 | 20.98991 | 81.15680 | 34809 ft | 523 kts | 140° |
| 2026-04-27 05:11 | 20.93906 | 81.21233 | 34814 ft | 522 kts | 140° |
| 2026-04-27 05:11 | 20.89100 | 81.26477 | 34819 ft | 522 kts | 140° |
| 2026-04-27 05:12 | 20.84029 | 81.32005 | 34819 ft | 522 kts | 140° |
| 2026-04-27 05:12 | 20.78912 | 81.37578 | 34822 ft | 522 kts | 140° |
| 2026-04-27 05:13 | 20.73880 | 81.43160 | 34827 ft | 523 kts | 139° |
| 2026-04-27 05:13 | 20.68856 | 81.48741 | 34834 ft | 524 kts | 139° |
| 2026-04-27 05:14 | 20.63795 | 81.54356 | 34836 ft | 522 kts | 139° |
| 2026-04-27 05:14 | 20.58735 | 81.59962 | 34833 ft | 524 kts | 139° |
| 2026-04-27 05:15 | 20.53698 | 81.65536 | 34843 ft | 524 kts | 139° |
| 2026-04-27 05:15 | 20.48643 | 81.71123 | 34834 ft | 524 kts | 140° |
| 2026-04-27 05:16 | 20.43594 | 81.76698 | 34843 ft | 523 kts | 139° |
| 2026-04-27 05:16 | 20.38539 | 81.82272 | 34848 ft | 523 kts | 139° |
| 2026-04-27 05:17 | 20.33468 | 81.87859 | 34862 ft | 525 kts | 139° |
| 2026-04-27 05:17 | 20.28385 | 81.93455 | 34878 ft | 524 kts | 139° |
| 2026-04-27 05:18 | 20.23337 | 81.99004 | 34882 ft | 524 kts | 139° |
| 2026-04-27 05:18 | 20.18291 | 82.04595 | 34903 ft | 524 kts | 139° |
| 2026-04-27 05:19 | 20.13244 | 82.10209 | 34909 ft | 524 kts | 139° |
| 2026-04-27 05:19 | 20.08219 | 82.15791 | 34917 ft | 525 kts | 139° |
| 2026-04-27 05:20 | 20.03160 | 82.21404 | 34913 ft | 525 kts | 139° |
| 2026-04-27 05:20 | 19.98091 | 82.27022 | 34907 ft | 525 kts | 139° |
| 2026-04-27 05:21 | 19.93029 | 82.32625 | 34896 ft | 526 kts | 139° |
| 2026-04-27 05:21 | 19.87979 | 82.38211 | 34893 ft | 524 kts | 139° |
| 2026-04-27 05:22 | 19.82922 | 82.43797 | 34897 ft | 526 kts | 139° |
| 2026-04-27 05:22 | 19.77862 | 82.49382 | 34906 ft | 524 kts | 139° |
| 2026-04-27 05:23 | 19.72786 | 82.54979 | 34905 ft | 524 kts | 139° |
| 2026-04-27 05:23 | 19.67777 | 82.60497 | 34898 ft | 525 kts | 139° |
| 2026-04-27 05:24 | 19.62722 | 82.66058 | 34874 ft | 525 kts | 139° |
| 2026-04-27 05:24 | 19.57640 | 82.71645 | 34846 ft | 526 kts | 139° |
| 2026-04-27 05:25 | 19.52578 | 82.77205 | 34847 ft | 526 kts | 139° |
| 2026-04-27 05:25 | 19.47518 | 82.82758 | 34883 ft | 523 kts | 139° |
| 2026-04-27 05:26 | 19.42454 | 82.88308 | 34924 ft | 524 kts | 139° |
| 2026-04-27 05:26 | 19.37395 | 82.93848 | 34966 ft | 525 kts | 139° |
| 2026-04-27 05:27 | 19.32303 | 82.99419 | 34993 ft | 524 kts | 139° |
| 2026-04-27 05:27 | 19.27232 | 83.04963 | 34992 ft | 526 kts | 139° |
| 2026-04-27 05:28 | 19.22146 | 83.10516 | 34985 ft | 524 kts | 139° |
| 2026-04-27 05:28 | 19.17066 | 83.16059 | 34986 ft | 525 kts | 139° |
| 2026-04-27 05:29 | 19.11987 | 83.21596 | 34987 ft | 524 kts | 139° |
| 2026-04-27 05:29 | 19.06891 | 83.27144 | 34982 ft | 523 kts | 139° |
| 2026-04-27 05:30 | 19.01843 | 83.32637 | 34968 ft | 523 kts | 139° |
| 2026-04-27 05:30 | 18.96746 | 83.38175 | 34948 ft | 525 kts | 139° |
| 2026-04-27 05:31 | 18.91686 | 83.43669 | 34915 ft | 524 kts | 139° |
| 2026-04-27 05:31 | 18.86597 | 83.49187 | 34879 ft | 524 kts | 139° |
| 2026-04-27 05:32 | 18.81493 | 83.54717 | 34859 ft | 524 kts | 138° |
| 2026-04-27 05:32 | 18.76407 | 83.60223 | 34864 ft | 524 kts | 138° |
| 2026-04-27 05:33 | 18.71319 | 83.65726 | 34879 ft | 522 kts | 139° |
| 2026-04-27 05:33 | 18.66256 | 83.71195 | 34864 ft | 523 kts | 139° |
| 2026-04-27 05:34 | 18.61183 | 83.76672 | 34858 ft | 523 kts | 139° |
| 2026-04-27 05:34 | 18.56105 | 83.82149 | 34828 ft | 523 kts | 139° |
| 2026-04-27 05:35 | 18.51040 | 83.87607 | 34807 ft | 521 kts | 139° |
| 2026-04-27 05:35 | 18.45955 | 83.93081 | 34800 ft | 524 kts | 139° |
| 2026-04-27 05:36 | 18.40865 | 83.98556 | 34801 ft | 523 kts | 139° |
| 2026-04-27 05:36 | 18.35786 | 84.04015 | 34802 ft | 522 kts | 139° |
| 2026-04-27 05:37 | 18.30727 | 84.09447 | 34804 ft | 522 kts | 138° |
| 2026-04-27 05:37 | 18.25635 | 84.14883 | 34807 ft | 521 kts | 139° |
| 2026-04-27 05:38 | 18.20549 | 84.20270 | 34806 ft | 520 kts | 139° |
| 2026-04-27 05:38 | 18.15433 | 84.25687 | 34808 ft | 519 kts | 139° |
| 2026-04-27 05:39 | 18.10365 | 84.31048 | 34815 ft | 520 kts | 139° |
| 2026-04-27 05:39 | 18.05261 | 84.36444 | 34811 ft | 520 kts | 139° |
| 2026-04-27 05:40 | 18.00199 | 84.41793 | 34815 ft | 518 kts | 139° |
| 2026-04-27 05:40 | 17.95126 | 84.47147 | 34813 ft | 518 kts | 139° |
| 2026-04-27 05:41 | 17.90018 | 84.52535 | 34815 ft | 520 kts | 138° |
| 2026-04-27 05:41 | 17.84926 | 84.57900 | 34818 ft | 518 kts | 138° |
| 2026-04-27 05:42 | 17.79832 | 84.63264 | 34817 ft | 518 kts | 138° |
| 2026-04-27 05:42 | 17.74761 | 84.68598 | 34807 ft | 518 kts | 139° |
| 2026-04-27 05:43 | 17.69647 | 84.73974 | 34809 ft | 518 kts | 139° |
| 2026-04-27 05:43 | 17.64603 | 84.79309 | 34809 ft | 518 kts | 138° |
| 2026-04-27 05:44 | 17.59548 | 84.84759 | 34813 ft | 519 kts | 137° |
| 2026-04-27 05:44 | 17.54515 | 84.90177 | 34813 ft | 520 kts | 137° |
| 2026-04-27 05:45 | 17.49497 | 84.95571 | 34815 ft | 519 kts | 137° |
| 2026-04-27 05:45 | 17.44460 | 85.00980 | 34813 ft | 518 kts | 137° |
| 2026-04-27 05:46 | 17.39415 | 85.06390 | 34818 ft | 519 kts | 137° |
| 2026-04-27 05:46 | 17.34375 | 85.11791 | 34824 ft | 521 kts | 137° |
| 2026-04-27 05:47 | 17.29318 | 85.17206 | 34821 ft | 519 kts | 137° |
| 2026-04-27 05:47 | 17.24292 | 85.22582 | 34826 ft | 520 kts | 137° |
| 2026-04-27 05:48 | 17.19217 | 85.28005 | 34827 ft | 519 kts | 137° |
| 2026-04-27 05:48 | 17.14241 | 85.33422 | 34832 ft | 520 kts | 135° |
| 2026-04-27 05:49 | 17.09341 | 85.39037 | 34836 ft | 520 kts | 135° |
| 2026-04-27 05:49 | 17.04479 | 85.44594 | 34838 ft | 520 kts | 135° |
| 2026-04-27 05:50 | 16.99613 | 85.50142 | 34842 ft | 520 kts | 135° |
| 2026-04-27 05:50 | 16.94722 | 85.55708 | 34849 ft | 518 kts | 135° |
| 2026-04-27 05:51 | 16.89843 | 85.61253 | 34847 ft | 518 kts | 135° |
| 2026-04-27 05:51 | 16.84966 | 85.66789 | 34836 ft | 517 kts | 135° |
| 2026-04-27 05:52 | 16.80085 | 85.72325 | 34839 ft | 518 kts | 135° |
| 2026-04-27 05:52 | 16.75196 | 85.77865 | 34839 ft | 518 kts | 135° |
| 2026-04-27 05:53 | 16.70330 | 85.83373 | 34842 ft | 518 kts | 135° |
| 2026-04-27 05:53 | 16.65450 | 85.88893 | 34843 ft | 518 kts | 135° |
| 2026-04-27 05:54 | 16.60537 | 85.94445 | 34845 ft | 519 kts | 135° |
| 2026-04-27 05:54 | 16.55671 | 85.99941 | 34843 ft | 516 kts | 135° |
| 2026-04-27 05:55 | 16.50785 | 86.05453 | 34838 ft | 517 kts | 135° |
| 2026-04-27 05:55 | 16.45927 | 86.10931 | 34841 ft | 517 kts | 135° |
| 2026-04-27 05:56 | 16.41042 | 86.16434 | 34842 ft | 516 kts | 135° |
| 2026-04-27 05:56 | 16.36134 | 86.21958 | 34843 ft | 516 kts | 135° |
| 2026-04-27 05:57 | 16.31263 | 86.27437 | 34847 ft | 516 kts | 135° |
| 2026-04-27 05:57 | 16.26411 | 86.32890 | 34849 ft | 516 kts | 135° |
| 2026-04-27 05:58 | 16.21512 | 86.38392 | 34852 ft | 516 kts | 135° |
| 2026-04-27 05:58 | 16.16637 | 86.43861 | 34852 ft | 516 kts | 135° |
| 2026-04-27 05:59 | 16.11763 | 86.49326 | 34851 ft | 515 kts | 135° |
| 2026-04-27 05:59 | 16.06882 | 86.54794 | 34853 ft | 515 kts | 135° |
| 2026-04-27 06:00 | 15.99583 | 86.62964 | 34854 ft | 515 kts | 135° |
| 2026-04-27 06:00 | 15.94711 | 86.68411 | 34846 ft | 514 kts | 135° |
| 2026-04-27 06:01 | 15.89828 | 86.73867 | 34844 ft | 514 kts | 135° |
| 2026-04-27 06:01 | 15.84947 | 86.79317 | 34845 ft | 515 kts | 135° |
| 2026-04-27 06:02 | 15.80088 | 86.84738 | 34848 ft | 515 kts | 135° |
| 2026-04-27 06:02 | 15.75220 | 86.90166 | 34858 ft | 513 kts | 135° |
| 2026-04-27 06:03 | 15.70339 | 86.95602 | 34866 ft | 515 kts | 135° |
| 2026-04-27 06:03 | 15.65470 | 87.01022 | 34866 ft | 514 kts | 135° |
| 2026-04-27 06:04 | 15.60563 | 87.06479 | 34867 ft | 514 kts | 135° |
| 2026-04-27 06:04 | 15.55691 | 87.11895 | 34869 ft | 515 kts | 135° |
| 2026-04-27 06:05 | 15.50808 | 87.17318 | 34866 ft | 513 kts | 135° |
| 2026-04-27 06:05 | 15.45935 | 87.22726 | 34869 ft | 514 kts | 135° |
| 2026-04-27 06:06 | 15.41078 | 87.28112 | 34867 ft | 513 kts | 135° |
| 2026-04-27 06:06 | 15.36189 | 87.33530 | 34856 ft | 514 kts | 135° |
| 2026-04-27 06:07 | 15.31324 | 87.38917 | 34852 ft | 513 kts | 135° |
| 2026-04-27 06:07 | 15.26467 | 87.44291 | 34850 ft | 513 kts | 135° |
| 2026-04-27 06:08 | 15.21685 | 87.49808 | 34853 ft | 513 kts | 133° |
| 2026-04-27 06:08 | 15.16953 | 87.55308 | 34853 ft | 512 kts | 133° |
| 2026-04-27 06:09 | 15.12193 | 87.60828 | 34857 ft | 512 kts | 133° |
| 2026-04-27 06:09 | 15.07466 | 87.66303 | 34856 ft | 511 kts | 134° |
| 2026-04-27 06:10 | 15.02711 | 87.71801 | 34858 ft | 512 kts | 134° |
| 2026-04-27 06:10 | 14.97987 | 87.77258 | 34868 ft | 512 kts | 134° |
| 2026-04-27 06:11 | 14.93229 | 87.82751 | 34868 ft | 512 kts | 134° |
| 2026-04-27 06:11 | 14.88487 | 87.88219 | 34865 ft | 510 kts | 134° |
| 2026-04-27 06:12 | 14.83760 | 87.93668 | 34864 ft | 510 kts | 134° |
| 2026-04-27 06:12 | 14.79009 | 87.99140 | 34864 ft | 509 kts | 134° |
| 2026-04-27 06:13 | 14.74260 | 88.04605 | 34876 ft | 510 kts | 134° |
| 2026-04-27 06:13 | 14.69538 | 88.10035 | 34874 ft | 508 kts | 134° |
| 2026-04-27 06:14 | 14.64813 | 88.15466 | 34869 ft | 507 kts | 134° |
| 2026-04-27 06:14 | 14.60099 | 88.20879 | 34868 ft | 506 kts | 134° |
| 2026-04-27 06:15 | 14.55402 | 88.26269 | 34866 ft | 506 kts | 133° |
| 2026-04-27 06:15 | 14.50690 | 88.31673 | 34858 ft | 506 kts | 134° |
| 2026-04-27 06:16 | 14.45980 | 88.37071 | 34851 ft | 507 kts | 134° |
| 2026-04-27 06:16 | 14.41288 | 88.42444 | 34851 ft | 505 kts | 133° |
| 2026-04-27 06:17 | 14.36556 | 88.47859 | 34850 ft | 505 kts | 133° |
| 2026-04-27 06:17 | 14.31875 | 88.53213 | 34852 ft | 505 kts | 133° |
| 2026-04-27 06:18 | 14.27188 | 88.58569 | 34853 ft | 505 kts | 133° |
| 2026-04-27 06:18 | 14.22485 | 88.63942 | 34853 ft | 505 kts | 133° |
| 2026-04-27 06:19 | 14.17771 | 88.69322 | 34845 ft | 504 kts | 133° |
| 2026-04-27 06:19 | 14.13090 | 88.74661 | 34845 ft | 504 kts | 134° |
| 2026-04-27 06:20 | 14.08376 | 88.80034 | 34847 ft | 503 kts | 133° |
| 2026-04-27 06:20 | 14.03708 | 88.85351 | 34847 ft | 505 kts | 133° |
| 2026-04-27 06:21 | 13.98998 | 88.90713 | 34847 ft | 503 kts | 133° |
| 2026-04-27 06:21 | 13.94297 | 88.96060 | 34848 ft | 503 kts | 133° |
| 2026-04-27 06:22 | 13.89618 | 89.01379 | 34848 ft | 502 kts | 133° |
| 2026-04-27 06:22 | 13.84934 | 89.06702 | 34846 ft | 503 kts | 133° |
| 2026-04-27 06:23 | 13.80245 | 89.12026 | 34848 ft | 502 kts | 133° |
| 2026-04-27 06:23 | 13.75538 | 89.17366 | 34848 ft | 502 kts | 133° |
| 2026-04-27 06:24 | 13.70845 | 89.22688 | 34850 ft | 502 kts | 133° |
| 2026-04-27 06:24 | 13.66157 | 89.28000 | 34852 ft | 503 kts | 133° |
| 2026-04-27 06:25 | 13.61465 | 89.33314 | 34860 ft | 503 kts | 133° |
| 2026-04-27 06:25 | 13.56746 | 89.38654 | 34863 ft | 501 kts | 133° |
| 2026-04-27 06:26 | 13.52052 | 89.43963 | 34867 ft | 502 kts | 133° |
| 2026-04-27 06:26 | 13.47382 | 89.49242 | 34868 ft | 501 kts | 133° |
| 2026-04-27 06:27 | 13.42678 | 89.54555 | 34866 ft | 501 kts | 133° |
| 2026-04-27 06:27 | 13.37992 | 89.59846 | 34869 ft | 501 kts | 132° |
| 2026-04-27 06:28 | 13.33313 | 89.65124 | 34868 ft | 501 kts | 133° |
| 2026-04-27 06:28 | 13.28626 | 89.70408 | 34852 ft | 500 kts | 133° |
| 2026-04-27 06:29 | 13.23945 | 89.75682 | 34845 ft | 501 kts | 133° |
| 2026-04-27 06:29 | 13.19242 | 89.80978 | 34844 ft | 500 kts | 133° |
| 2026-04-27 06:30 | 13.14566 | 89.86241 | 34845 ft | 500 kts | 133° |
| 2026-04-27 06:30 | 13.09869 | 89.91524 | 34846 ft | 501 kts | 133° |
| 2026-04-27 06:31 | 13.05171 | 89.96805 | 34846 ft | 500 kts | 133° |
| 2026-04-27 06:31 | 13.00499 | 90.02052 | 34849 ft | 499 kts | 133° |
| 2026-04-27 06:32 | 12.95838 | 90.07285 | 34849 ft | 499 kts | 132° |
| 2026-04-27 06:32 | 12.91147 | 90.12549 | 34849 ft | 499 kts | 132° |
| 2026-04-27 06:33 | 12.86451 | 90.17815 | 34847 ft | 498 kts | 132° |
| 2026-04-27 06:33 | 12.81780 | 90.23050 | 34846 ft | 498 kts | 132° |
| 2026-04-27 06:34 | 12.77101 | 90.28290 | 34847 ft | 498 kts | 132° |
| 2026-04-27 06:34 | 12.72451 | 90.33495 | 34847 ft | 499 kts | 132° |
| 2026-04-27 06:35 | 12.67744 | 90.38760 | 34848 ft | 499 kts | 132° |
| 2026-04-27 06:35 | 12.63075 | 90.43980 | 34847 ft | 498 kts | 132° |
| 2026-04-27 06:36 | 12.58377 | 90.49229 | 34849 ft | 497 kts | 132° |
| 2026-04-27 06:36 | 12.53731 | 90.54418 | 34849 ft | 497 kts | 132° |
| 2026-04-27 06:37 | 12.49037 | 90.59656 | 34849 ft | 496 kts | 132° |
| 2026-04-27 06:37 | 12.44368 | 90.64864 | 34848 ft | 496 kts | 132° |
| 2026-04-27 06:38 | 12.39704 | 90.70064 | 34849 ft | 495 kts | 133° |
| 2026-04-27 06:38 | 12.35057 | 90.75240 | 34853 ft | 496 kts | 133° |
| 2026-04-27 06:39 | 12.30372 | 90.80457 | 34856 ft | 496 kts | 132° |
| 2026-04-27 06:39 | 12.25726 | 90.85629 | 34862 ft | 496 kts | 132° |
| 2026-04-27 06:40 | 12.21069 | 90.90808 | 34868 ft | 495 kts | 132° |